Observation data for Dozier on 04/16/2021      Previous  Date  Next       Current Mesonet Observations  Soil Data  Daily Summary Page  Observations in Plain Language
KDO1 160500Z 09010KT 07/07 A2993 RMK A01 T00670067  RH  100%=      5-min Rain = 0
KDO1 160501Z 08012KT 07/07 A2993 RMK A01 T00660066  RH  100%=      5-min Rain = 0
KDO1 160502Z 09010KT 07/07 A2993 RMK A01 T00660066  RH  100%=      5-min Rain = 0
KDO1 160503Z 09010KT 07/07 A2993 RMK A01 T00660066  RH  100%=      5-min Rain = 0
KDO1 160504Z 09010KT 07/07 A2993 RMK A01 T00660066  RH  100%=      5-min Rain = 0
KDO1 160505Z 09010KT 07/07 A2993 RMK A01 T00660066  RH  100%=      5-min Rain = 0
KDO1 160506Z 09010KT 07/07 A2993 RMK A01 T00660066  RH  100%=      5-min Rain = 0
KDO1 160507Z 09010KT 07/07 A2993 RMK A01 T00660066  RH  100%=      5-min Rain = 0
KDO1 160508Z 09010KT 07/07 A2993 RMK A01 T00660066  RH  100%=      5-min Rain = 0
KDO1 160509Z 09009KT 07/07 A2993 RMK A01 T00660066  RH  100%=      5-min Rain = 0
KDO1 160510Z 09008KT 07/07 A2993 RMK A01 T00660066  RH  100%=      5-min Rain = 0
KDO1 160511Z 09010KT 07/07 A2993 RMK A01 T00660066  RH  100%=      5-min Rain = 0
KDO1 160512Z 10009KT 07/07 A2993 RMK A01 T00660066  RH  100%=      5-min Rain = 0
KDO1 160513Z 10008KT 07/07 A2993 RMK A01 T00660066  RH  100%=      5-min Rain = 0
KDO1 160514Z 09009KT 07/07 A2993 RMK A01 T00660066  RH  100%=      5-min Rain = 0
KDO1 160515Z 09008KT 07/07 A2993 RMK A01 T00660066  RH  100%=      5-min Rain = 0
KDO1 160516Z 09011KT 07/07 A2993 RMK A01 T00660066  RH  100%=      5-min Rain = 0
KDO1 160517Z 10010KT 07/07 A2993 RMK A01 T00660066  RH  100%=      5-min Rain = 0
KDO1 160518Z 09010KT 07/07 A2993 RMK A01 T00660066  RH  100%=      5-min Rain = 0
KDO1 160519Z 09010KT 07/07 A2993 RMK A01 T00660066  RH  100%=      5-min Rain = 0
KDO1 160520Z 09011KT 07/07 A2993 RMK A01 T00660066  RH  100%=      5-min Rain = 0
KDO1 160521Z 09010KT 07/07 A2993 RMK A01 T00660066  RH  100%=      5-min Rain = 0
KDO1 160522Z 08010KT 07/07 A2992 RMK A01 T00660066  RH  100%=      5-min Rain = 0
KDO1 160523Z 08011KT 07/07 A2992 RMK A01 T00660066  RH  100%=      5-min Rain = 0
KDO1 160524Z 09010KT 07/07 A2992 RMK A01 T00660066  RH  100%=      5-min Rain = 0
KDO1 160525Z 09009KT 07/07 A2992 RMK A01 T00660066  RH  100%=      5-min Rain = 0
KDO1 160526Z 09009KT 07/07 A2992 RMK A01 T00660066  RH  100%=      5-min Rain = 0
KDO1 160527Z 09008KT 07/07 A2992 RMK A01 T00660066  RH  100%=      5-min Rain = 0
KDO1 160528Z 09008KT 07/07 A2992 RMK A01 T00670067  RH  100%=      5-min Rain = 0
KDO1 160529Z 09009KT 07/07 A2992 RMK A01 T00670067  RH  100%=      5-min Rain = 0
KDO1 160530Z 09008KT 07/07 A2992 RMK A01 T00670067  RH  100%=      5-min Rain = 0
KDO1 160531Z 10009KT 07/07 A2992 RMK A01 T00670067  RH  100%=      5-min Rain = 0
KDO1 160532Z 09008KT 07/07 A2992 RMK A01 T00670067  RH  100%=      5-min Rain = 0
KDO1 160533Z 09007KT 07/07 A2992 RMK A01 T00670067  RH  100%=      5-min Rain = 0
KDO1 160534Z 09008KT 07/07 A2992 RMK A01 T00670067  RH  100%=      5-min Rain = 0
KDO1 160535Z 08007KT 07/07 A2992 RMK A01 T00670067  RH  100%=      5-min Rain = 0
KDO1 160536Z 08008KT 07/07 A2992 RMK A01 T00670067  RH  100%=      5-min Rain = 0
KDO1 160537Z 08010KT 07/07 A2992 RMK A01 T00670067  RH  100%=      5-min Rain = 0
KDO1 160538Z 09009KT 07/07 A2992 RMK A01 T00670067  RH  100%=      5-min Rain = 0
KDO1 160539Z 09008KT 07/07 A2992 RMK A01 T00670067  RH  100%=      5-min Rain = 0
KDO1 160540Z 09009KT 07/07 A2992 RMK A01 T00670067  RH  100%=      5-min Rain = 0
KDO1 160541Z 09009KT 07/07 A2992 RMK A01 T00670066  RH  100%=      5-min Rain = 0
KDO1 160542Z 09009KT 07/07 A2992 RMK A01 T00670066  RH  100%=      5-min Rain = 0
KDO1 160543Z 08008KT 07/07 A2992 RMK A01 T00670067  RH  100%=      5-min Rain = 0
KDO1 160544Z 08008KT 07/07 A2992 RMK A01 T00670067  RH  100%=      5-min Rain = 0
KDO1 160545Z 08009KT 07/07 A2992 RMK A01 T00670067  RH  100%=      5-min Rain = 0
KDO1 160546Z 08009KT 07/07 A2992 RMK A01 T00670067  RH  100%=      5-min Rain = 0
KDO1 160547Z 08008KT 07/07 A2992 RMK A01 T00670067  RH  100%=      5-min Rain = 0
KDO1 160548Z 08011KT 07/07 A2992 RMK A01 T00670067  RH  100%=      5-min Rain = 0
KDO1 160549Z 09010KT 07/07 A2992 RMK A01 T00670067  RH  100%=      5-min Rain = 0
KDO1 160550Z 09012KT 07/07 A2992 RMK A01 T00670067  RH  100%=      5-min Rain = 0
KDO1 160551Z 10009KT 07/07 A2992 RMK A01 T00670067  RH  100%=      5-min Rain = 0
KDO1 160552Z 09008KT 07/07 A2992 RMK A01 T00670067  RH  100%=      5-min Rain = 0
KDO1 160553Z 09009KT 07/07 A2992 RMK A01 T00670067  RH  100%=      5-min Rain = 0
KDO1 160554Z 09008KT 07/07 A2992 RMK A01 T00670067  RH  100%=      5-min Rain = 0
KDO1 160555Z 09007KT 07/07 A2992 RMK A01 T00670067  RH  100%=      5-min Rain = 0
KDO1 160556Z 09007KT 07/07 A2992 RMK A01 T00670067  RH  100%=      5-min Rain = 0
KDO1 160557Z 09006KT 07/07 A2992 RMK A01 T00670067  RH  100%=      5-min Rain = 0
KDO1 160558Z 09007KT 07/07 A2991 RMK A01 T00670067  RH  100%=      5-min Rain = 0
KDO1 160559Z 09006KT 07/07 A2991 RMK A01 T00670067  RH  100%=      5-min Rain = 0
KDO1 160600Z 08007KT 07/07 A2991 RMK A01 T00670067  RH  100%=      5-min Rain = 0
KDO1 160601Z 09006KT 07/07 A2991 RMK A01 T00670066  RH  100%=      5-min Rain = 0
KDO1 160602Z 10008KT 07/07 A2991 RMK A01 T00670067  RH  100%=      5-min Rain = 0
KDO1 160603Z 10008KT 07/07 A2991 RMK A01 T00670067  RH  100%=      5-min Rain = 0
KDO1 160604Z 10005KT 07/07 A2991 RMK A01 T00670067  RH  100%=      5-min Rain = 0
KDO1 160605Z 08007KT 07/07 A2991 RMK A01 T00670067  RH  100%=      5-min Rain = 0
KDO1 160606Z 10008KT 07/07 A2991 RMK A01 T00670067  RH  100%=      5-min Rain = 0
KDO1 160607Z 09008KT 07/07 A2991 RMK A01 T00670067  RH  100%=      5-min Rain = 0
KDO1 160608Z 09006KT 07/07 A2991 RMK A01 T00670067  RH  100%=      5-min Rain = 0
KDO1 160609Z 07006KT 07/07 A2991 RMK A01 T00670067  RH  100%=      5-min Rain = 0
KDO1 160610Z 07008KT 07/07 A2991 RMK A01 T00670067  RH  100%=      5-min Rain = 0
KDO1 160611Z 07007KT 07/07 A2991 RMK A01 T00670067  RH  100%=      5-min Rain = 0
KDO1 160612Z 07010KT 07/07 A2991 RMK A01 T00670067  RH  100%=      5-min Rain = 0
KDO1 160613Z 08007KT 07/07 A2991 RMK A01 T00670067  RH  100%=      5-min Rain = 0
KDO1 160614Z 08009KT 07/07 A2991 RMK A01 T00670066  RH  100%=      5-min Rain = 0
KDO1 160615Z 08009KT 07/07 A2991 RMK A01 T00660066  RH  100%=      5-min Rain = 0
KDO1 160616Z 08009KT 07/07 A2991 RMK A01 T00660066  RH  100%=      5-min Rain = 0
KDO1 160617Z 08009KT 07/07 A2991 RMK A01 T00660066  RH  100%=      5-min Rain = 0
KDO1 160618Z 09010KT 07/07 A2991 RMK A01 T00660066  RH  100%=      5-min Rain = 0
KDO1 160619Z 09009KT 07/07 A2991 RMK A01 T00660066  RH  100%=      5-min Rain = 0
KDO1 160620Z 09008KT 07/07 A2991 RMK A01 T00660066  RH  100%=      5-min Rain = 0
KDO1 160621Z 09007KT 07/07 A2991 RMK A01 T00660066  RH  100%=      5-min Rain = 0
KDO1 160622Z 09008KT 07/07 A2991 RMK A01 T00660066  RH  100%=      5-min Rain = 0
KDO1 160623Z 07009KT 07/07 A2991 RMK A01 T00660066  RH  100%=      5-min Rain = 0
KDO1 160624Z 08007KT 07/07 A2991 RMK A01 T00660066  RH  100%=      5-min Rain = 0
KDO1 160625Z 09006KT 07/07 A2991 RMK A01 T00660066  RH  100%=      5-min Rain = 0
KDO1 160626Z 08007KT 07/07 A2991 RMK A01 T00660066  RH  100%=      5-min Rain = 0
KDO1 160627Z 08008KT 07/07 A2991 RMK A01 T00670067  RH  100%=      5-min Rain = 0
KDO1 160628Z 08009KT 07/07 A2991 RMK A01 T00670067  RH  100%=      5-min Rain = 0
KDO1 160629Z 08007KT 07/07 A2991 RMK A01 T00670067  RH  100%=      5-min Rain = 0
KDO1 160630Z 08008KT 07/07 A2991 RMK A01 T00670067  RH  100%=      5-min Rain = 0
KDO1 160631Z 08007KT 07/07 A2991 RMK A01 T00670067  RH  100%=      5-min Rain = 0
KDO1 160632Z 08008KT 07/07 A2991 RMK A01 T00670067  RH  100%=      5-min Rain = 0
KDO1 160633Z 08008KT 07/07 A2991 RMK A01 T00670067  RH  100%=      5-min Rain = 0
KDO1 160634Z 09007KT 07/07 A2991 RMK A01 T00670066  RH  100%=      5-min Rain = 0
KDO1 160635Z 09006KT 07/07 A2991 RMK A01 T00670067  RH  100%=      5-min Rain = 0
KDO1 160636Z 09006KT 07/07 A2991 RMK A01 T00670066  RH  100%=      5-min Rain = 0
KDO1 160637Z 07006KT 07/07 A2991 RMK A01 T00670067  RH  100%=      5-min Rain = 0
KDO1 160638Z 07007KT 07/07 A2991 RMK A01 T00670067  RH  100%=      5-min Rain = 0
KDO1 160639Z 07006KT 07/07 A2992 RMK A01 T00670067  RH  100%=      5-min Rain = 0
KDO1 160640Z 09005KT 07/07 A2992 RMK A01 T00670067  RH  100%=      5-min Rain = 0
KDO1 160641Z 09006KT 07/07 A2992 RMK A01 T00670067  RH  100%=      5-min Rain = 0
KDO1 160642Z 08008KT 07/07 A2992 RMK A01 T00670067  RH  100%=      5-min Rain = 0
KDO1 160643Z 08006KT 07/07 A2992 RMK A01 T00670066  RH  100%=      5-min Rain = 0
KDO1 160644Z 09006KT 07/07 A2992 RMK A01 T00670067  RH  100%=      5-min Rain = 0
KDO1 160645Z 09007KT 07/07 A2992 RMK A01 T00670067  RH  100%=      5-min Rain = 0
KDO1 160646Z 09008KT 07/07 A2992 RMK A01 T00670067  RH  100%=      5-min Rain = 0
KDO1 160647Z 09009KT 07/07 A2992 RMK A01 T00670067  RH  100%=      5-min Rain = 0
KDO1 160648Z 09007KT 07/07 A2992 RMK A01 T00670067  RH  100%=      5-min Rain = 0
KDO1 160649Z 09007KT 07/07 A2992 RMK A01 T00670067  RH  100%=      5-min Rain = 0
KDO1 160650Z 09006KT 07/07 A2992 RMK A01 T00670067  RH  100%=      5-min Rain = 0
KDO1 160651Z 08006KT 07/07 A2992 RMK A01 T00670067  RH  100%=      5-min Rain = 0
KDO1 160652Z 08007KT 07/07 A2992 RMK A01 T00670067  RH  100%=      5-min Rain = 0
KDO1 160653Z 07008KT 07/07 A2992 RMK A01 T00670067  RH  100%=      5-min Rain = 0
KDO1 160654Z 08006KT 07/07 A2992 RMK A01 T00670067  RH  100%=      5-min Rain = 0
KDO1 160655Z 07007KT 07/07 A2992 RMK A01 T00670067  RH  100%=      5-min Rain = 0
KDO1 160656Z 08008KT 07/07 A2992 RMK A01 T00670067  RH  100%=      5-min Rain = 0
KDO1 160657Z 08007KT 07/07 A2992 RMK A01 T00670067  RH  100%=      5-min Rain = 0
KDO1 160658Z 08006KT 07/07 A2992 RMK A01 T00670067  RH  100%=      5-min Rain = 0
KDO1 160659Z 08006KT 07/07 A2992 RMK A01 T00670067  RH  100%=      5-min Rain = 0
KDO1 160700Z 07006KT 07/07 A2992 RMK A01 T00670067  RH  100%=      5-min Rain = 0
KDO1 160701Z 08005KT 07/07 A2992 RMK A01 T00670067  RH  100%=      5-min Rain = 0
KDO1 160702Z 08004KT 07/07 A2992 RMK A01 T00670067  RH  100%=      5-min Rain = 0
KDO1 160703Z 08005KT 07/07 A2992 RMK A01 T00670067  RH  100%=      5-min Rain = 0
KDO1 160704Z 08006KT 07/07 A2992 RMK A01 T00680067  RH  100%=      5-min Rain = 0
KDO1 160705Z 08006KT 07/07 A2992 RMK A01 T00680068  RH  100%=      5-min Rain = 0
KDO1 160706Z 07006KT 07/07 A2992 RMK A01 T00680068  RH  100%=      5-min Rain = 0
KDO1 160707Z 07006KT 07/07 A2992 RMK A01 T00680068  RH  100%=      5-min Rain = 0
KDO1 160708Z 06005KT 07/07 A2992 RMK A01 T00680067  RH  100%=      5-min Rain = 0.01
KDO1 160709Z 06006KT 07/07 A2992 RMK A01 T00680068  RH  100%=      5-min Rain = 0
KDO1 160710Z 06005KT 07/07 A2992 RMK A01 T00670067  RH  100%=      5-min Rain = 0
KDO1 160711Z 05008KT 07/07 A2992 RMK A01 T00680068  RH  100%=      5-min Rain = 0
KDO1 160712Z 05007KT 07/07 A2992 RMK A01 T00680067  RH  100%=      5-min Rain = 0
KDO1 160713Z 06007KT 07/07 A2992 RMK A01 T00670067  RH  100%=      5-min Rain = 0
KDO1 160714Z 05007KT 07/07 A2992 RMK A01 T00670067  RH  100%=      5-min Rain = 0
KDO1 160715Z 06006KT 07/07 A2992 RMK A01 T00660066  RH  100%=      5-min Rain = 0
KDO1 160716Z 06006KT 07/07 A2992 RMK A01 T00660066  RH  100%=      5-min Rain = 0
KDO1 160717Z 05005KT 07/07 A2992 RMK A01 T00660066  RH  100%=      5-min Rain = 0
KDO1 160718Z 05006KT 07/07 A2993 RMK A01 T00660066  RH  100%=      5-min Rain = 0
KDO1 160719Z 05007KT 07/07 A2993 RMK A01 T00660066  RH  100%=      5-min Rain = 0
KDO1 160720Z 06007KT 07/07 A2993 RMK A01 T00660066  RH  100%=      5-min Rain = 0
KDO1 160721Z 05007KT 07/07 A2993 RMK A01 T00660066  RH  100%=      5-min Rain = 0
KDO1 160722Z 05005KT 07/07 A2993 RMK A01 T00660066  RH  100%=      5-min Rain = 0
KDO1 160723Z 04007KT 07/07 A2993 RMK A01 T00660066  RH  100%=      5-min Rain = 0
KDO1 160724Z 04005KT 07/07 A2993 RMK A01 T00660066  RH  100%=      5-min Rain = 0
KDO1 160725Z 04006KT 07/07 A2992 RMK A01 T00660066  RH  100%=      5-min Rain = 0
KDO1 160726Z 04005KT 07/07 A2992 RMK A01 T00660066  RH  100%=      5-min Rain = 0
KDO1 160727Z 04006KT 07/07 A2992 RMK A01 T00660066  RH  100%=      5-min Rain = 0
KDO1 160728Z 03005KT 07/07 A2992 RMK A01 T00660066  RH  100%=      5-min Rain = 0
KDO1 160729Z 02006KT 07/07 A2992 RMK A01 T00660066  RH  100%=      5-min Rain = 0
KDO1 160730Z 03007KT 07/07 A2992 RMK A01 T00660066  RH  100%=      5-min Rain = 0
KDO1 160731Z 03008KT 07/07 A2992 RMK A01 T00660066  RH  100%=      5-min Rain = 0
KDO1 160732Z 04007KT 07/07 A2992 RMK A01 T00650065  RH  100%=      5-min Rain = 0
KDO1 160733Z 04007KT 07/07 A2992 RMK A01 T00650065  RH  100%=      5-min Rain = 0
KDO1 160734Z 04006KT 07/07 A2992 RMK A01 T00650065  RH  100%=      5-min Rain = 0
KDO1 160735Z 04007KT 07/07 A2992 RMK A01 T00650065  RH  100%=      5-min Rain = 0.01
KDO1 160736Z 04008KT 07/07 A2992 RMK A01 T00650065  RH  100%=      5-min Rain = 0
KDO1 160737Z 04007KT 06/06 A2992 RMK A01 T00640064  RH  100%=      5-min Rain = 0
KDO1 160738Z 04006KT 06/06 A2992 RMK A01 T00640064  RH  100%=      5-min Rain = 0
KDO1 160739Z 03007KT 06/06 A2992 RMK A01 T00640064  RH  100%=      5-min Rain = 0
KDO1 160740Z 03006KT 07/06 A2993 RMK A01 T00650064  RH  100%=      5-min Rain = 0
KDO1 160741Z 04007KT 06/06 A2993 RMK A01 T00640064  RH  100%=      5-min Rain = 0
KDO1 160742Z 04007KT 07/07 A2993 RMK A01 T00650065  RH  100%=      5-min Rain = 0
KDO1 160743Z 04007KT 06/06 A2993 RMK A01 T00640064  RH  100%=      5-min Rain = 0
KDO1 160744Z 04006KT 06/06 A2993 RMK A01 T00640064  RH  100%=      5-min Rain = 0
KDO1 160745Z 03005KT 06/06 A2993 RMK A01 T00640064  RH  100%=      5-min Rain = 0
KDO1 160746Z 03005KT 06/06 A2993 RMK A01 T00640064  RH  100%=      5-min Rain = 0
KDO1 160747Z 02004KT 07/06 A2993 RMK A01 T00650064  RH  100%=      5-min Rain = 0
KDO1 160748Z 01005KT 07/07 A2993 RMK A01 T00650065  RH  100%=      5-min Rain = 0
KDO1 160749Z 01006KT 07/07 A2994 RMK A01 T00650065  RH  100%=      5-min Rain = 0
KDO1 160750Z 00006KT 07/07 A2994 RMK A01 T00650065  RH  100%=      5-min Rain = 0
KDO1 160751Z 36005KT 07/07 A2994 RMK A01 T00650065  RH  100%=      5-min Rain = 0
KDO1 160752Z 35005KT 07/07 A2994 RMK A01 T00650065  RH  100%=      5-min Rain = 0
KDO1 160753Z 35007KT 07/07 A2994 RMK A01 T00660065  RH  100%=      5-min Rain = 0
KDO1 160754Z 36007KT 07/07 A2994 RMK A01 T00660066  RH  100%=      5-min Rain = 0
KDO1 160755Z 35007KT 07/07 A2994 RMK A01 T00660066  RH  100%=      5-min Rain = 0
KDO1 160756Z 00006KT 07/07 A2994 RMK A01 T00660066  RH  100%=      5-min Rain = 0
KDO1 160757Z 35007KT 07/07 A2994 RMK A01 T00660066  RH  100%=      5-min Rain = 0
KDO1 160758Z 35008KT 07/07 A2995 RMK A01 T00660066  RH  100%=      5-min Rain = 0
KDO1 160759Z 35009KT 07/07 A2995 RMK A01 T00660066  RH  100%=      5-min Rain = 0
KDO1 160800Z 36007KT 07/07 A2995 RMK A01 T00660066  RH  100%=      5-min Rain = 0.01
KDO1 160801Z 36006KT 07/07 A2995 RMK A01 T00660066  RH  100%=      5-min Rain = 0
KDO1 160802Z 01006KT 07/07 A2995 RMK A01 T00660066  RH  100%=      5-min Rain = 0
KDO1 160803Z 36006KT 07/07 A2995 RMK A01 T00670067  RH  100%=      5-min Rain = 0
KDO1 160804Z 36006KT 07/07 A2995 RMK A01 T00670067  RH  100%=      5-min Rain = 0
KDO1 160805Z 35009KT 07/07 A2995 RMK A01 T00670067  RH  100%=      5-min Rain = 0
KDO1 160806Z 35009KT 07/07 A2995 RMK A01 T00670067  RH  100%=      5-min Rain = 0
KDO1 160807Z 36008KT 07/07 A2995 RMK A01 T00670067  RH  100%=      5-min Rain = 0
KDO1 160808Z 00008KT 07/07 A2995 RMK A01 T00670067  RH  100%=      5-min Rain = 0
KDO1 160809Z 01008KT 07/07 A2994 RMK A01 T00660066  RH  100%=      5-min Rain = 0
KDO1 160810Z 00007KT 07/07 A2994 RMK A01 T00660066  RH  100%=      5-min Rain = 0
KDO1 160811Z 36007KT 07/07 A2994 RMK A01 T00660066  RH  100%=      5-min Rain = 0
KDO1 160812Z 35007KT 07/07 A2994 RMK A01 T00660066  RH  100%=      5-min Rain = 0.01
KDO1 160813Z 36007KT 07/07 A2994 RMK A01 T00660066  RH  100%=      5-min Rain = 0
KDO1 160814Z 36007KT 07/07 A2994 RMK A01 T00660066  RH  100%=      5-min Rain = 0
KDO1 160815Z 35006KT 07/07 A2994 RMK A01 T00660066  RH  100%=      5-min Rain = 0
KDO1 160816Z 35006KT 07/07 A2994 RMK A01 T00660066  RH  100%=      5-min Rain = 0
KDO1 160817Z 36009KT 07/07 A2994 RMK A01 T00660066  RH  100%=      5-min Rain = 0
KDO1 160818Z 00007KT 07/07 A2994 RMK A01 T00660066  RH  100%=      5-min Rain = 0
KDO1 160819Z 36007KT 07/07 A2994 RMK A01 T00660066  RH  100%=      5-min Rain = 0
KDO1 160820Z 35007KT 07/07 A2994 RMK A01 T00660066  RH  100%=      5-min Rain = 0
KDO1 160821Z 35006KT 07/07 A2994 RMK A01 T00660066  RH  100%=      5-min Rain = 0
KDO1 160822Z 35007KT 07/07 A2994 RMK A01 T00660066  RH  100%=      5-min Rain = 0
KDO1 160823Z 36006KT 07/07 A2994 RMK A01 T00660066  RH  100%=      5-min Rain = 0
KDO1 160824Z 00006KT 07/07 A2994 RMK A01 T00660066  RH  100%=      5-min Rain = 0
KDO1 160825Z 02007KT 07/07 A2993 RMK A01 T00650065  RH  100%=      5-min Rain = 0
KDO1 160826Z 02006KT 07/07 A2993 RMK A01 T00650065  RH  100%=      5-min Rain = 0
KDO1 160827Z 02007KT 07/07 A2993 RMK A01 T00650065  RH  100%=      5-min Rain = 0
KDO1 160828Z 02007KT 07/07 A2993 RMK A01 T00650065  RH  100%=      5-min Rain = 0
KDO1 160829Z 01007KT 06/06 A2993 RMK A01 T00640064  RH  100%=      5-min Rain = 0
KDO1 160830Z 01007KT 06/06 A2993 RMK A01 T00640064  RH  100%=      5-min Rain = 0
KDO1 160831Z 00005KT 06/06 A2993 RMK A01 T00640064  RH  100%=      5-min Rain = 0
KDO1 160832Z 00006KT 07/06 A2993 RMK A01 T00650064  RH  100%=      5-min Rain = 0
KDO1 160833Z 36005KT 07/07 A2993 RMK A01 T00650065  RH  100%=      5-min Rain = 0
KDO1 160834Z 00005KT 07/07 A2993 RMK A01 T00650065  RH  100%=      5-min Rain = 0
KDO1 160835Z 01006KT 07/07 A2993 RMK A01 T00650065  RH  100%=      5-min Rain = 0
KDO1 160836Z 00007KT 07/07 A2993 RMK A01 T00650065  RH  100%=      5-min Rain = 0
KDO1 160837Z 00007KT 07/07 A2993 RMK A01 T00650065  RH  100%=      5-min Rain = 0
KDO1 160838Z 00007KT 07/07 A2993 RMK A01 T00650065  RH  100%=      5-min Rain = 0.01
KDO1 160839Z 00007KT 07/07 A2993 RMK A01 T00650065  RH  100%=      5-min Rain = 0
KDO1 160840Z 35006KT 07/07 A2993 RMK A01 T00650065  RH  100%=      5-min Rain = 0
KDO1 160841Z 36006KT 07/07 A2993 RMK A01 T00650065  RH  100%=      5-min Rain = 0
KDO1 160842Z 00007KT 07/07 A2993 RMK A01 T00650065  RH  100%=      5-min Rain = 0
KDO1 160843Z 00005KT 07/07 A2993 RMK A01 T00650065  RH  100%=      5-min Rain = 0
KDO1 160844Z 00006KT 07/07 A2993 RMK A01 T00650065  RH  100%=      5-min Rain = 0
KDO1 160845Z 00007KT 07/07 A2993 RMK A01 T00650065  RH  100%=      5-min Rain = 0
KDO1 160846Z 00005KT 07/07 A2993 RMK A01 T00650065  RH  100%=      5-min Rain = 0
KDO1 160847Z 01006KT 07/07 A2993 RMK A01 T00650065  RH  100%=      5-min Rain = 0
KDO1 160848Z 00005KT 07/07 A2993 RMK A01 T00650065  RH  100%=      5-min Rain = 0
KDO1 160849Z 00007KT 07/07 A2993 RMK A01 T00650065  RH  100%=      5-min Rain = 0
KDO1 160850Z 00006KT 07/07 A2993 RMK A01 T00650065  RH  100%=      5-min Rain = 0
KDO1 160851Z 36006KT 07/07 A2993 RMK A01 T00650065  RH  100%=      5-min Rain = 0
KDO1 160852Z 01005KT 07/07 A2993 RMK A01 T00650065  RH  100%=      5-min Rain = 0
KDO1 160853Z 00005KT 07/07 A2993 RMK A01 T00650065  RH  100%=      5-min Rain = 0
KDO1 160854Z 00006KT 07/07 A2993 RMK A01 T00650065  RH  100%=      5-min Rain = 0
KDO1 160855Z 00006KT 07/07 A2993 RMK A01 T00650065  RH  100%=      5-min Rain = 0
KDO1 160856Z 00006KT 07/07 A2993 RMK A01 T00650065  RH  100%=      5-min Rain = 0
KDO1 160857Z 36006KT 07/07 A2993 RMK A01 T00650065  RH  100%=      5-min Rain = 0
KDO1 160858Z 36006KT 07/07 A2993 RMK A01 T00650065  RH  100%=      5-min Rain = 0
KDO1 160859Z 36005KT 07/07 A2993 RMK A01 T00650065  RH  100%=      5-min Rain = 0
KDO1 160900Z 36007KT 07/07 A2993 RMK A01 T00650065  RH  100%=      5-min Rain = 0
KDO1 160901Z 36007KT 07/07 A2993 RMK A01 T00650065  RH  100%=      5-min Rain = 0
KDO1 160902Z 35006KT 07/07 A2993 RMK A01 T00650065  RH  100%=      5-min Rain = 0
KDO1 160903Z 36008KT 07/07 A2993 RMK A01 T00650065  RH  100%=      5-min Rain = 0
KDO1 160904Z 00006KT 07/07 A2993 RMK A01 T00650065  RH  100%=      5-min Rain = 0
KDO1 160905Z 36008KT 07/07 A2993 RMK A01 T00650065  RH  100%=      5-min Rain = 0
KDO1 160906Z 00007KT 07/07 A2993 RMK A01 T00660065  RH  100%=      5-min Rain = 0
KDO1 160907Z 00006KT 07/07 A2993 RMK A01 T00650065  RH  100%=      5-min Rain = 0
KDO1 160908Z 01007KT 07/07 A2993 RMK A01 T00650065  RH  100%=      5-min Rain = 0
KDO1 160909Z 00007KT 07/07 A2993 RMK A01 T00650065  RH  100%=      5-min Rain = 0
KDO1 160910Z 00007KT 07/07 A2993 RMK A01 T00650065  RH  100%=      5-min Rain = 0
KDO1 160911Z 36009KT 07/07 A2993 RMK A01 T00650065  RH  100%=      5-min Rain = 0
KDO1 160912Z 36009KT 07/07 A2993 RMK A01 T00650065  RH  100%=      5-min Rain = 0
KDO1 160913Z 00008KT 07/07 A2993 RMK A01 T00650065  RH  100%=      5-min Rain = 0
KDO1 160914Z 36007KT 07/07 A2993 RMK A01 T00650065  RH  100%=      5-min Rain = 0
KDO1 160915Z 36007KT 07/07 A2993 RMK A01 T00650065  RH  100%=      5-min Rain = 0
KDO1 160916Z 36007KT 07/07 A2993 RMK A01 T00660066  RH  100%=      5-min Rain = 0
KDO1 160917Z 00008KT 07/07 A2993 RMK A01 T00660066  RH  100%=      5-min Rain = 0
KDO1 160918Z 36007KT 07/07 A2993 RMK A01 T00660066  RH  100%=      5-min Rain = 0
KDO1 160919Z 36007KT 07/07 A2993 RMK A01 T00660066  RH  100%=      5-min Rain = 0
KDO1 160920Z 00007KT 07/07 A2993 RMK A01 T00660066  RH  100%=      5-min Rain = 0
KDO1 160921Z 36007KT 07/07 A2993 RMK A01 T00660066  RH  100%=      5-min Rain = 0
KDO1 160922Z 36008KT 07/07 A2993 RMK A01 T00660066  RH  100%=      5-min Rain = 0
KDO1 160923Z 36008KT 07/07 A2993 RMK A01 T00660066  RH  100%=      5-min Rain = 0
KDO1 160924Z 00007KT 07/07 A2993 RMK A01 T00660066  RH  100%=      5-min Rain = 0
KDO1 160925Z 35008KT 07/07 A2993 RMK A01 T00660066  RH  100%=      5-min Rain = 0
KDO1 160926Z 36009KT 07/07 A2993 RMK A01 T00660066  RH  100%=      5-min Rain = 0
KDO1 160927Z 36010KT 07/07 A2993 RMK A01 T00660066  RH  100%=      5-min Rain = 0
KDO1 160928Z 36009KT 07/07 A2993 RMK A01 T00660066  RH  100%=      5-min Rain = 0
KDO1 160929Z 36009KT 07/07 A2993 RMK A01 T00660066  RH  100%=      5-min Rain = 0
KDO1 160930Z 36009KT 07/07 A2993 RMK A01 T00660066  RH  100%=      5-min Rain = 0
KDO1 160931Z 36009KT 07/07 A2993 RMK A01 T00660066  RH  100%=      5-min Rain = 0
KDO1 160932Z 36008KT 07/07 A2993 RMK A01 T00660066  RH  100%=      5-min Rain = 0
KDO1 160933Z 36009KT 07/07 A2993 RMK A01 T00660066  RH  100%=      5-min Rain = 0
KDO1 160934Z 36010KT 07/07 A2993 RMK A01 T00660066  RH  100%=      5-min Rain = 0
KDO1 160935Z 36009KT 07/07 A2993 RMK A01 T00660066  RH  100%=      5-min Rain = 0
KDO1 160936Z 00008KT 07/07 A2993 RMK A01 T00660066  RH  100%=      5-min Rain = 0
KDO1 160937Z 01008KT 07/07 A2993 RMK A01 T00660066  RH  100%=      5-min Rain = 0
KDO1 160938Z 01009KT 07/07 A2993 RMK A01 T00660066  RH  100%=      5-min Rain = 0
KDO1 160939Z 00009KT 07/07 A2994 RMK A01 T00660066  RH  100%=      5-min Rain = 0
KDO1 160940Z 00010KT 07/07 A2993 RMK A01 T00660066  RH  100%=      5-min Rain = 0
KDO1 160941Z 00008KT 07/07 A2993 RMK A01 T00660066  RH  100%=      5-min Rain = 0
KDO1 160942Z 00009KT 07/07 A2993 RMK A01 T00660066  RH  100%=      5-min Rain = 0
KDO1 160943Z 01009KT 07/07 A2993 RMK A01 T00660066  RH  100%=      5-min Rain = 0
KDO1 160944Z 00006KT 07/07 A2993 RMK A01 T00660066  RH  100%=      5-min Rain = 0
KDO1 160945Z 36008KT 07/07 A2993 RMK A01 T00660066  RH  100%=      5-min Rain = 0
KDO1 160946Z 00009KT 07/07 A2993 RMK A01 T00660066  RH  100%=      5-min Rain = 0
KDO1 160947Z 01008KT 07/07 A2993 RMK A01 T00660066  RH  100%=      5-min Rain = 0
KDO1 160948Z 00006KT 07/07 A2993 RMK A01 T00660066  RH  100%=      5-min Rain = 0
KDO1 160949Z 01007KT 07/07 A2993 RMK A01 T00660066  RH  100%=      5-min Rain = 0
KDO1 160950Z 01009KT 07/07 A2993 RMK A01 T00660066  RH  100%=      5-min Rain = 0
KDO1 160951Z 00007KT 07/07 A2993 RMK A01 T00660066  RH  100%=      5-min Rain = 0
KDO1 160952Z 00008KT 07/07 A2993 RMK A01 T00660066  RH  100%=      5-min Rain = 0
KDO1 160953Z 00006KT 07/07 A2993 RMK A01 T00670066  RH  100%=      5-min Rain = 0
KDO1 160954Z 00008KT 07/07 A2992 RMK A01 T00660066  RH  100%=      5-min Rain = 0
KDO1 160955Z 01006KT 07/07 A2992 RMK A01 T00660066  RH  100%=      5-min Rain = 0
KDO1 160956Z 01005KT 07/07 A2992 RMK A01 T00660066  RH  100%=      5-min Rain = 0
KDO1 160957Z 01006KT 07/07 A2992 RMK A01 T00660066  RH  100%=      5-min Rain = 0
KDO1 160958Z 01006KT 07/07 A2992 RMK A01 T00660066  RH  100%=      5-min Rain = 0
KDO1 160959Z 02005KT 07/07 A2992 RMK A01 T00660066  RH  100%=      5-min Rain = 0
KDO1 161000Z 01007KT 07/07 A2992 RMK A01 T00660066  RH  100%=      5-min Rain = 0
KDO1 161001Z 01007KT 07/07 A2992 RMK A01 T00660066  RH  100%=      5-min Rain = 0
KDO1 161002Z 01006KT 07/07 A2992 RMK A01 T00660066  RH  100%=      5-min Rain = 0
KDO1 161003Z 01006KT 07/07 A2992 RMK A01 T00660066  RH  100%=      5-min Rain = 0
KDO1 161004Z 02005KT 07/07 A2992 RMK A01 T00660066  RH  100%=      5-min Rain = 0
KDO1 161005Z 01007KT 07/07 A2992 RMK A01 T00660066  RH  100%=      5-min Rain = 0
KDO1 161006Z 01007KT 07/07 A2992 RMK A01 T00660066  RH  100%=      5-min Rain = 0
KDO1 161007Z 02007KT 07/07 A2992 RMK A01 T00660066  RH  100%=      5-min Rain = 0
KDO1 161008Z 01006KT 07/07 A2992 RMK A01 T00660066  RH  100%=      5-min Rain = 0
KDO1 161009Z 01005KT 07/07 A2992 RMK A01 T00660066  RH  100%=      5-min Rain = 0
KDO1 161010Z 02006KT 07/07 A2992 RMK A01 T00660066  RH  100%=      5-min Rain = 0
KDO1 161011Z 02006KT 07/07 A2992 RMK A01 T00660066  RH  100%=      5-min Rain = 0
KDO1 161012Z 02006KT 07/07 A2991 RMK A01 T00660066  RH  100%=      5-min Rain = 0
KDO1 161013Z 03006KT 07/07 A2991 RMK A01 T00660066  RH  100%=      5-min Rain = 0
KDO1 161014Z 03006KT 07/07 A2991 RMK A01 T00660066  RH  100%=      5-min Rain = 0
KDO1 161015Z 03006KT 07/07 A2991 RMK A01 T00660066  RH  100%=      5-min Rain = 0
KDO1 161016Z 02006KT 07/07 A2991 RMK A01 T00660066  RH  100%=      5-min Rain = 0
KDO1 161017Z 03005KT 07/07 A2991 RMK A01 T00660066  RH  100%=      5-min Rain = 0
KDO1 161018Z 03005KT 07/07 A2991 RMK A01 T00660066  RH  100%=      5-min Rain = 0
KDO1 161019Z 03007KT 07/07 A2991 RMK A01 T00660066  RH  100%=      5-min Rain = 0
KDO1 161020Z 03006KT 07/07 A2991 RMK A01 T00660066  RH  100%=      5-min Rain = 0
KDO1 161021Z 03006KT 07/07 A2991 RMK A01 T00660066  RH  100%=      5-min Rain = 0
KDO1 161022Z 03007KT 07/07 A2991 RMK A01 T00660066  RH  100%=      5-min Rain = 0
KDO1 161023Z 03005KT 07/07 A2991 RMK A01 T00660066  RH  100%=      5-min Rain = 0
KDO1 161024Z 03004KT 07/07 A2991 RMK A01 T00660066  RH  100%=      5-min Rain = 0
KDO1 161025Z 03006KT 07/07 A2991 RMK A01 T00660066  RH  100%=      5-min Rain = 0
KDO1 161026Z 03006KT 07/07 A2991 RMK A01 T00660066  RH  100%=      5-min Rain = 0
KDO1 161027Z 03005KT 07/07 A2991 RMK A01 T00660066  RH  100%=      5-min Rain = 0
KDO1 161028Z 03006KT 07/07 A2991 RMK A01 T00660066  RH  100%=      5-min Rain = 0
KDO1 161029Z 03004KT 07/07 A2991 RMK A01 T00660066  RH  100%=      5-min Rain = 0
KDO1 161030Z 04006KT 07/07 A2991 RMK A01 T00660066  RH  100%=      5-min Rain = 0
KDO1 161031Z 03007KT 07/07 A2991 RMK A01 T00660066  RH  100%=      5-min Rain = 0
KDO1 161032Z 03006KT 07/07 A2991 RMK A01 T00660066  RH  100%=      5-min Rain = 0
KDO1 161033Z 03007KT 07/07 A2991 RMK A01 T00660066  RH  100%=      5-min Rain = 0
KDO1 161034Z 03007KT 07/07 A2991 RMK A01 T00660066  RH  100%=      5-min Rain = 0
KDO1 161035Z 03006KT 07/07 A299 RMK A01 T00660066  RH  100%=      5-min Rain = 0
KDO1 161036Z 04007KT 07/07 A299 RMK A01 T00660066  RH  100%=      5-min Rain = 0
KDO1 161037Z 04007KT 07/07 A299 RMK A01 T00660066  RH  100%=      5-min Rain = 0
KDO1 161038Z 04006KT 07/07 A299 RMK A01 T00650065  RH  100%=      5-min Rain = 0
KDO1 161039Z 04006KT 07/07 A299 RMK A01 T00650065  RH  100%=      5-min Rain = 0
KDO1 161040Z 04005KT 07/07 A299 RMK A01 T00660066  RH  100%=      5-min Rain = 0
KDO1 161041Z 05007KT 07/07 A299 RMK A01 T00650065  RH  100%=      5-min Rain = 0
KDO1 161042Z 05006KT 07/07 A299 RMK A01 T00650065  RH  100%=      5-min Rain = 0
KDO1 161043Z 05007KT 07/07 A2989 RMK A01 T00650065  RH  100%=      5-min Rain = 0
KDO1 161044Z 05006KT 07/07 A2989 RMK A01 T00650065  RH  100%=      5-min Rain = 0
KDO1 161045Z 06006KT 07/07 A2989 RMK A01 T00650065  RH  100%=      5-min Rain = 0
KDO1 161046Z 05006KT 07/07 A2989 RMK A01 T00650065  RH  100%=      5-min Rain = 0
KDO1 161047Z 05005KT 07/07 A2989 RMK A01 T00650065  RH  100%=      5-min Rain = 0
KDO1 161048Z 06006KT 07/06 A2989 RMK A01 T00650064  RH  100%=      5-min Rain = 0
KDO1 161049Z 07006KT 06/06 A2989 RMK A01 T00640064  RH  100%=      5-min Rain = 0
KDO1 161050Z 06006KT 06/06 A2989 RMK A01 T00640064  RH  100%=      5-min Rain = 0
KDO1 161051Z 06006KT 06/06 A2989 RMK A01 T00640064  RH  100%=      5-min Rain = 0
KDO1 161052Z 06006KT 06/06 A2989 RMK A01 T00630063  RH  100%=      5-min Rain = 0
KDO1 161053Z 05005KT 06/06 A2989 RMK A01 T00630063  RH  100%=      5-min Rain = 0
KDO1 161054Z 04006KT 06/06 A2989 RMK A01 T00630063  RH  100%=      5-min Rain = 0
KDO1 161055Z 04007KT 06/06 A2989 RMK A01 T00630063  RH  100%=      5-min Rain = 0
KDO1 161056Z 04005KT 06/06 A2989 RMK A01 T00630063  RH  100%=      5-min Rain = 0
KDO1 161057Z 03005KT 06/06 A2989 RMK A01 T00630063  RH  100%=      5-min Rain = 0
KDO1 161058Z 03005KT 06/06 A2989 RMK A01 T00630063  RH  100%=      5-min Rain = 0
KDO1 161059Z 03005KT 06/06 A299 RMK A01 T00630063  RH  100%=      5-min Rain = 0
KDO1 161100Z 01005KT 06/06 A299 RMK A01 T00620062  RH  100%=      5-min Rain = 0
KDO1 161101Z 01005KT 06/06 A299 RMK A01 T00620062  RH  100%=      5-min Rain = 0
KDO1 161102Z 00005KT 06/06 A299 RMK A01 T00620062  RH  100%=      5-min Rain = 0
KDO1 161103Z 00007KT 06/06 A2991 RMK A01 T00620062  RH  100%=      5-min Rain = 0
KDO1 161104Z 00007KT 06/06 A2991 RMK A01 T00620062  RH  100%=      5-min Rain = 0
KDO1 161105Z 00006KT 06/06 A2991 RMK A01 T00620062  RH  100%=      5-min Rain = 0
KDO1 161106Z 00006KT 06/06 A2991 RMK A01 T00620062  RH  100%=      5-min Rain = 0
KDO1 161107Z 01006KT 06/06 A2991 RMK A01 T00620062  RH  100%=      5-min Rain = 0
KDO1 161108Z 01006KT 06/06 A2991 RMK A01 T00620062  RH  100%=      5-min Rain = 0
KDO1 161109Z 02005KT 06/06 A299 RMK A01 T00620062  RH  100%=      5-min Rain = 0
KDO1 161110Z 02007KT 06/06 A299 RMK A01 T00620062  RH  100%=      5-min Rain = 0
KDO1 161111Z 02007KT 06/06 A299 RMK A01 T00620062  RH  100%=      5-min Rain = 0
KDO1 161112Z 03007KT 06/06 A299 RMK A01 T00620062  RH  100%=      5-min Rain = 0
KDO1 161113Z 04008KT 06/06 A299 RMK A01 T00630063  RH  100%=      5-min Rain = 0
KDO1 161114Z 02007KT 06/06 A299 RMK A01 T00630062  RH  100%=      5-min Rain = 0
KDO1 161115Z 03007KT 06/06 A299 RMK A01 T00630063  RH  100%=      5-min Rain = 0
KDO1 161116Z 03006KT 06/06 A299 RMK A01 T00630063  RH  100%=      5-min Rain = 0
KDO1 161117Z 03005KT 06/06 A299 RMK A01 T00630063  RH  100%=      5-min Rain = 0
KDO1 161118Z 03007KT 06/06 A299 RMK A01 T00630063  RH  100%=      5-min Rain = 0
KDO1 161119Z 04006KT 06/06 A299 RMK A01 T00630062  RH  100%=      5-min Rain = 0
KDO1 161120Z 03005KT 06/06 A299 RMK A01 T00620062  RH  100%=      5-min Rain = 0
KDO1 161121Z 03005KT 06/06 A299 RMK A01 T00620062  RH  100%=      5-min Rain = 0
KDO1 161122Z 03006KT 06/06 A299 RMK A01 T00620062  RH  100%=      5-min Rain = 0
KDO1 161123Z 03007KT 06/06 A299 RMK A01 T00630062  RH  100%=      5-min Rain = 0
KDO1 161124Z 02006KT 06/06 A299 RMK A01 T00630062  RH  100%=      5-min Rain = 0
KDO1 161125Z 03006KT 06/06 A299 RMK A01 T00630062  RH  100%=      5-min Rain = 0
KDO1 161126Z 02006KT 06/06 A299 RMK A01 T00630062  RH  100%=      5-min Rain = 0
KDO1 161127Z 02006KT 06/06 A299 RMK A01 T00630062  RH  100%=      5-min Rain = 0
KDO1 161128Z 03008KT 06/06 A2991 RMK A01 T00630062  RH  100%=      5-min Rain = 0
KDO1 161129Z 03009KT 06/06 A2991 RMK A01 T00630062  RH  100%=      5-min Rain = 0
KDO1 161130Z 04008KT 06/06 A2991 RMK A01 T00630062  RH  100%=      5-min Rain = 0
KDO1 161131Z 04007KT 06/06 A2991 RMK A01 T00630063  RH  100%=      5-min Rain = 0
KDO1 161132Z 03009KT 06/06 A2991 RMK A01 T00630062  RH  100%=      5-min Rain = 0
KDO1 161133Z 03009KT 06/06 A2991 RMK A01 T00620062  RH  100%=      5-min Rain = 0
KDO1 161134Z 03008KT 06/06 A2991 RMK A01 T00620062  RH  100%=      5-min Rain = 0
KDO1 161135Z 03009KT 06/06 A2991 RMK A01 T00620062  RH  100%=      5-min Rain = 0
KDO1 161136Z 03008KT 06/06 A2991 RMK A01 T00620062  RH  100%=      5-min Rain = 0
KDO1 161137Z 02006KT 06/06 A2991 RMK A01 T00620062  RH  100%=      5-min Rain = 0
KDO1 161138Z 02007KT 06/06 A2991 RMK A01 T00620062  RH  100%=      5-min Rain = 0
KDO1 161139Z 02007KT 06/06 A2991 RMK A01 T00620062  RH  100%=      5-min Rain = 0
KDO1 161140Z 03006KT 06/06 A2991 RMK A01 T00620062  RH  100%=      5-min Rain = 0
KDO1 161141Z 03007KT 06/06 A2991 RMK A01 T00620061  RH  100%=      5-min Rain = 0
KDO1 161142Z 02007KT 06/06 A2991 RMK A01 T00620061  RH  100%=      5-min Rain = 0
KDO1 161143Z 02008KT 06/06 A2991 RMK A01 T00620062  RH  100%=      5-min Rain = 0
KDO1 161144Z 03007KT 06/06 A2991 RMK A01 T00620061  RH  100%=      5-min Rain = 0
KDO1 161145Z 02008KT 06/06 A2991 RMK A01 T00620061  RH  100%=      5-min Rain = 0
KDO1 161146Z 02008KT 06/06 A2991 RMK A01 T00620062  RH  100%=      5-min Rain = 0
KDO1 161147Z 02009KT 06/06 A2991 RMK A01 T00610061  RH  100%=      5-min Rain = 0
KDO1 161148Z 02010KT 06/06 A2991 RMK A01 T00610061  RH  100%=      5-min Rain = 0
KDO1 161149Z 02009KT 06/06 A2991 RMK A01 T00610061  RH  100%=      5-min Rain = 0
KDO1 161150Z 02009KT 06/06 A2991 RMK A01 T00610061  RH  100%=      5-min Rain = 0
KDO1 161151Z 02007KT 06/06 A2991 RMK A01 T00610061  RH  100%=      5-min Rain = 0
KDO1 161152Z 02007KT 06/06 A2991 RMK A01 T00610061  RH  100%=      5-min Rain = 0
KDO1 161153Z 02006KT 06/06 A2991 RMK A01 T00610061  RH  100%=      5-min Rain = 0
KDO1 161154Z 02005KT 06/06 A2991 RMK A01 T00610060  RH  100%=      5-min Rain = 0
KDO1 161155Z 02007KT 06/06 A2991 RMK A01 T00610061  RH  100%=      5-min Rain = 0
KDO1 161156Z 02008KT 06/06 A2991 RMK A01 T00610061  RH  100%=      5-min Rain = 0
KDO1 161157Z 01008KT 06/06 A2991 RMK A01 T00610061  RH  100%=      5-min Rain = 0
KDO1 161158Z 01006KT 06/06 A2991 RMK A01 T00610061  RH  100%=      5-min Rain = 0
KDO1 161159Z 01008KT 06/06 A2991 RMK A01 T00610061  RH  100%=      5-min Rain = 0
KDO1 161200Z 02007KT 06/06 A2991 RMK A01 T00610061  RH  100%=      5-min Rain = 0
KDO1 161201Z 02008KT 06/06 A2991 RMK A01 T00610061  RH  100%=      5-min Rain = 0
KDO1 161202Z 02007KT 06/06 A2991 RMK A01 T00610061  RH  100%=      5-min Rain = 0
KDO1 161203Z 02007KT 06/06 A2991 RMK A01 T00610061  RH  100%=      5-min Rain = 0
KDO1 161204Z 02006KT 06/06 A2991 RMK A01 T00610061  RH  100%=      5-min Rain = 0
KDO1 161205Z 02006KT 06/06 A2991 RMK A01 T00610061  RH  100%=      5-min Rain = 0
KDO1 161206Z 02006KT 06/06 A2991 RMK A01 T00610061  RH  100%=      5-min Rain = 0
KDO1 161207Z 02005KT 06/06 A2991 RMK A01 T00600060  RH  100%=      5-min Rain = 0
KDO1 161208Z 02007KT 06/06 A2991 RMK A01 T00600060  RH  100%=      5-min Rain = 0
KDO1 161209Z 02007KT 06/06 A2991 RMK A01 T00600060  RH  100%=      5-min Rain = 0
KDO1 161210Z 02007KT 06/06 A2991 RMK A01 T00600060  RH  100%=      5-min Rain = 0
KDO1 161211Z 02005KT 06/06 A2991 RMK A01 T00600060  RH  100%=      5-min Rain = 0
KDO1 161212Z 01006KT 06/06 A2991 RMK A01 T00600060  RH  100%=      5-min Rain = 0
KDO1 161213Z 02006KT 06/06 A2991 RMK A01 T00600060  RH  100%=      5-min Rain = 0
KDO1 161214Z 02007KT 06/06 A2991 RMK A01 T00600060  RH  100%=      5-min Rain = 0
KDO1 161215Z 01006KT 06/06 A2991 RMK A01 T00600060  RH  100%=      5-min Rain = 0
KDO1 161216Z 01006KT 06/06 A2991 RMK A01 T00600060  RH  100%=      5-min Rain = 0
KDO1 161217Z 00005KT 06/06 A2991 RMK A01 T00600060  RH  100%=      5-min Rain = 0
KDO1 161218Z 01006KT 06/06 A2991 RMK A01 T00600060  RH  100%=      5-min Rain = 0
KDO1 161219Z 01006KT 06/06 A2991 RMK A01 T00600060  RH  100%=      5-min Rain = 0
KDO1 161220Z 01005KT 06/06 A2991 RMK A01 T00600060  RH  100%=      5-min Rain = 0
KDO1 161221Z 01005KT 06/06 A2991 RMK A01 T00610061  RH  100%=      5-min Rain = 0
KDO1 161222Z 00006KT 06/06 A2991 RMK A01 T00610060  RH  100%=      5-min Rain = 0
KDO1 161223Z 01006KT 06/06 A2991 RMK A01 T00610061  RH  100%=      5-min Rain = 0
KDO1 161224Z 01005KT 06/06 A2991 RMK A01 T00610061  RH  100%=      5-min Rain = 0
KDO1 161225Z 01005KT 06/06 A2991 RMK A01 T00610061  RH  100%=      5-min Rain = 0
KDO1 161226Z 01005KT 06/06 A2991 RMK A01 T00610061  RH  100%=      5-min Rain = 0
KDO1 161227Z 01006KT 06/06 A2991 RMK A01 T00610061  RH  100%=      5-min Rain = 0
KDO1 161228Z 00006KT 06/06 A2991 RMK A01 T00610060  RH  100%=      5-min Rain = 0
KDO1 161229Z 00006KT 06/06 A2991 RMK A01 T00610061  RH  100%=      5-min Rain = 0
KDO1 161230Z 00007KT 06/06 A2991 RMK A01 T00610061  RH  100%=      5-min Rain = 0
KDO1 161231Z 36006KT 06/06 A2991 RMK A01 T00610061  RH  100%=      5-min Rain = 0
KDO1 161232Z 36007KT 06/06 A2992 RMK A01 T00610061  RH  100%=      5-min Rain = 0
KDO1 161233Z 36008KT 06/06 A2992 RMK A01 T00610061  RH  100%=      5-min Rain = 0
KDO1 161234Z 36007KT 06/06 A2992 RMK A01 T00620062  RH  100%=      5-min Rain = 0
KDO1 161235Z 00008KT 06/06 A2992 RMK A01 T00620061  RH  100%=      5-min Rain = 0
KDO1 161236Z 36006KT 06/06 A2992 RMK A01 T00620062  RH  100%=      5-min Rain = 0
KDO1 161237Z 36006KT 06/06 A2992 RMK A01 T00620062  RH  100%=      5-min Rain = 0
KDO1 161238Z 36008KT 06/06 A2992 RMK A01 T00620062  RH  100%=      5-min Rain = 0
KDO1 161239Z 36007KT 06/06 A2992 RMK A01 T00630063  RH  100%=      5-min Rain = 0
KDO1 161240Z 00007KT 06/06 A2992 RMK A01 T00620062  RH  100%=      5-min Rain = 0
KDO1 161241Z 01006KT 06/06 A2992 RMK A01 T00630062  RH  100%=      5-min Rain = 0
KDO1 161242Z 00006KT 06/06 A2992 RMK A01 T00630063  RH  100%=      5-min Rain = 0
KDO1 161243Z 36006KT 06/06 A2992 RMK A01 T00630063  RH  100%=      5-min Rain = 0
KDO1 161244Z 36007KT 06/06 A2992 RMK A01 T00630063  RH  100%=      5-min Rain = 0
KDO1 161245Z 00007KT 06/06 A2992 RMK A01 T00630063  RH  100%=      5-min Rain = 0
KDO1 161246Z 35007KT 06/06 A2992 RMK A01 T00630063  RH  100%=      5-min Rain = 0
KDO1 161247Z 00006KT 06/06 A2992 RMK A01 T00640064  RH  100%=      5-min Rain = 0
KDO1 161248Z 36007KT 06/06 A2993 RMK A01 T00640064  RH  100%=      5-min Rain = 0
KDO1 161249Z 36008KT 06/06 A2993 RMK A01 T00640064  RH  100%=      5-min Rain = 0
KDO1 161250Z 36007KT 06/06 A2993 RMK A01 T00640064  RH  100%=      5-min Rain = 0
KDO1 161251Z 36008KT 07/06 A2993 RMK A01 T00650064  RH  100%=      5-min Rain = 0
KDO1 161252Z 00008KT 07/07 A2993 RMK A01 T00650065  RH  100%=      5-min Rain = 0
KDO1 161253Z 36008KT 07/07 A2993 RMK A01 T00650065  RH  100%=      5-min Rain = 0
KDO1 161254Z 00007KT 07/07 A2993 RMK A01 T00650065  RH  100%=      5-min Rain = 0
KDO1 161255Z 36007KT 07/07 A2993 RMK A01 T00650065  RH  100%=      5-min Rain = 0
KDO1 161256Z 36006KT 07/07 A2993 RMK A01 T00660066  RH  100%=      5-min Rain = 0
KDO1 161257Z 36006KT 07/07 A2993 RMK A01 T00660066  RH  100%=      5-min Rain = 0
KDO1 161258Z 36006KT 07/07 A2993 RMK A01 T00660066  RH  100%=      5-min Rain = 0
KDO1 161259Z 36007KT 07/07 A2993 RMK A01 T00660066  RH  100%=      5-min Rain = 0
KDO1 161300Z 36006KT 07/07 A2993 RMK A01 T00660066  RH  100%=      5-min Rain = 0
KDO1 161301Z 36005KT 07/07 A2993 RMK A01 T00660066  RH  100%=      5-min Rain = 0
KDO1 161302Z 35005KT 07/07 A2993 RMK A01 T00670067  RH  100%=      5-min Rain = 0
KDO1 161303Z 36006KT 07/07 A2993 RMK A01 T00670066  RH  100%=      5-min Rain = 0
KDO1 161304Z 00006KT 07/07 A2993 RMK A01 T00670067  RH  100%=      5-min Rain = 0
KDO1 161305Z 00008KT 07/07 A2993 RMK A01 T00670067  RH  100%=      5-min Rain = 0
KDO1 161306Z 36008KT 07/07 A2993 RMK A01 T00670067  RH  100%=      5-min Rain = 0
KDO1 161307Z 36007KT 07/07 A2993 RMK A01 T00670067  RH  100%=      5-min Rain = 0
KDO1 161308Z 00008KT 07/07 A2993 RMK A01 T00670067  RH  100%=      5-min Rain = 0
KDO1 161309Z 36007KT 07/07 A2993 RMK A01 T00670067  RH  100%=      5-min Rain = 0
KDO1 161310Z 35008KT 07/07 A2993 RMK A01 T00670067  RH  100%=      5-min Rain = 0
KDO1 161311Z 36007KT 07/07 A2993 RMK A01 T00670067  RH  100%=      5-min Rain = 0
KDO1 161312Z 00006KT 07/07 A2993 RMK A01 T00680068  RH  100%=      5-min Rain = 0
KDO1 161313Z 00008KT 07/07 A2993 RMK A01 T00680068  RH  100%=      5-min Rain = 0
KDO1 161314Z 01007KT 07/07 A2993 RMK A01 T00680068  RH  100%=      5-min Rain = 0
KDO1 161315Z 01007KT 07/07 A2993 RMK A01 T00680068  RH  100%=      5-min Rain = 0
KDO1 161316Z 01006KT 07/07 A2993 RMK A01 T00680068  RH  100%=      5-min Rain = 0
KDO1 161317Z 01005KT 07/07 A2993 RMK A01 T00680068  RH  100%=      5-min Rain = 0
KDO1 161318Z 01006KT 07/07 A2993 RMK A01 T00690069  RH  100%=      5-min Rain = 0
KDO1 161319Z 00007KT 07/07 A2993 RMK A01 T00690069  RH  100%=      5-min Rain = 0
KDO1 161320Z 01007KT 07/07 A2994 RMK A01 T00690069  RH  100%=      5-min Rain = 0
KDO1 161321Z 01007KT 07/07 A2994 RMK A01 T00690069  RH  100%=      5-min Rain = 0
KDO1 161322Z 01006KT 07/07 A2994 RMK A01 T00690069  RH  100%=      5-min Rain = 0
KDO1 161323Z 01007KT 07/07 A2994 RMK A01 T00690069  RH  100%=      5-min Rain = 0
KDO1 161324Z 00006KT 07/07 A2993 RMK A01 T00700070  RH  100%=      5-min Rain = 0
KDO1 161325Z 35007KT 07/07 A2994 RMK A01 T00700069  RH  100%=      5-min Rain = 0
KDO1 161326Z 01006KT 07/07 A2994 RMK A01 T00700070  RH  100%=      5-min Rain = 0
KDO1 161327Z 00008KT 07/07 A2994 RMK A01 T00710071  RH  100%=      5-min Rain = 0
KDO1 161328Z 01006KT 07/07 A2994 RMK A01 T00710071  RH  100%=      5-min Rain = 0
KDO1 161329Z 00006KT 07/07 A2994 RMK A01 T00710071  RH  100%=      5-min Rain = 0
KDO1 161330Z 01006KT 07/07 A2994 RMK A01 T00710071  RH  100%=      5-min Rain = 0
KDO1 161331Z 01007KT 07/07 A2994 RMK A01 T00720071  RH  100%=      5-min Rain = 0
KDO1 161332Z 36006KT 07/07 A2994 RMK A01 T00720072  RH  100%=      5-min Rain = 0
KDO1 161333Z 36007KT 07/07 A2994 RMK A01 T00720072  RH  100%=      5-min Rain = 0
KDO1 161334Z 36009KT 07/07 A2994 RMK A01 T00720072  RH  100%=      5-min Rain = 0
KDO1 161335Z 36008KT 07/07 A2994 RMK A01 T00720072  RH  100%=      5-min Rain = 0
KDO1 161336Z 36010KT 07/07 A2994 RMK A01 T00720072  RH  100%=      5-min Rain = 0
KDO1 161337Z 35010KT 07/07 A2994 RMK A01 T00720071  RH  100%=      5-min Rain = 0
KDO1 161338Z 00010KT 07/07 A2995 RMK A01 T00710071  RH  100%=      5-min Rain = 0
KDO1 161339Z 35008KT 07/07 A2995 RMK A01 T00710071  RH  100%=      5-min Rain = 0
KDO1 161340Z 36008KT 07/07 A2995 RMK A01 T00710071  RH  100%=      5-min Rain = 0
KDO1 161341Z 36006KT 07/07 A2994 RMK A01 T00720072  RH  100%=      5-min Rain = 0
KDO1 161342Z 01007KT 07/07 A2994 RMK A01 T00730073  RH  100%=      5-min Rain = 0
KDO1 161343Z 00007KT 07/07 A2994 RMK A01 T00730072  RH  100%=      5-min Rain = 0
KDO1 161344Z 00008KT 07/07 A2994 RMK A01 T00720072  RH  100%=      5-min Rain = 0
KDO1 161345Z 00009KT 07/07 A2994 RMK A01 T00720072  RH  100%=      5-min Rain = 0
KDO1 161346Z 00007KT 07/07 A2994 RMK A01 T00730073  RH  100%=      5-min Rain = 0
KDO1 161347Z 00008KT 07/07 A2994 RMK A01 T00730073  RH  100%=      5-min Rain = 0
KDO1 161348Z 00010KT 07/07 A2994 RMK A01 T00730073  RH  100%=      5-min Rain = 0
KDO1 161349Z 36010KT 07/07 A2994 RMK A01 T00730073  RH  100%=      5-min Rain = 0
KDO1 161350Z 35010KT 07/07 A2994 RMK A01 T00730073  RH  100%=      5-min Rain = 0
KDO1 161351Z 36007KT 07/07 A2994 RMK A01 T00730073  RH  100%=      5-min Rain = 0
KDO1 161352Z 36010KT 07/07 A2994 RMK A01 T00740073  RH  100%=      5-min Rain = 0
KDO1 161353Z 36009KT 07/07 A2994 RMK A01 T00740073  RH  100%=      5-min Rain = 0
KDO1 161354Z 00007KT 07/07 A2994 RMK A01 T00740074  RH  100%=      5-min Rain = 0
KDO1 161355Z 36008KT 07/07 A2994 RMK A01 T00740074  RH  100%=      5-min Rain = 0
KDO1 161356Z 35007KT 07/07 A2994 RMK A01 T00740074  RH  100%=      5-min Rain = 0
KDO1 161357Z 36008KT 08/08 A2994 RMK A01 T00750075  RH  100%=      5-min Rain = 0
KDO1 161358Z 35007KT 07/07 A2994 RMK A01 T00740074  RH  100%=      5-min Rain = 0
KDO1 161359Z 35009KT 08/07 A2994 RMK A01 T00750074  RH  100%=      5-min Rain = 0
KDO1 161400Z 35010KT 08/08 A2994 RMK A01 T00750075  RH  100%=      5-min Rain = 0
KDO1 161401Z 35009KT 07/07 A2994 RMK A01 T00740074  RH  100%=      5-min Rain = 0
KDO1 161402Z 36010KT 08/07 A2994 RMK A01 T00750074  RH  100%=      5-min Rain = 0
KDO1 161403Z 36011KT 07/07 A2994 RMK A01 T00740073  RH  099%=      5-min Rain = 0
KDO1 161404Z 00009KT 07/07 A2994 RMK A01 T00740074  RH  100%=      5-min Rain = 0
KDO1 161405Z 01008KT 07/07 A2994 RMK A01 T00740074  RH  100%=      5-min Rain = 0
KDO1 161406Z 00009KT 08/08 A2994 RMK A01 T00750075  RH  100%=      5-min Rain = 0
KDO1 161407Z 36009KT 07/07 A2994 RMK A01 T00740073  RH  099%=      5-min Rain = 0
KDO1 161408Z 36010KT 07/07 A2994 RMK A01 T00740073  RH  099%=      5-min Rain = 0
KDO1 161409Z 36009KT 07/07 A2994 RMK A01 T00740073  RH  099%=      5-min Rain = 0
KDO1 161410Z 36008KT 07/07 A2994 RMK A01 T00740074  RH  100%=      5-min Rain = 0
KDO1 161411Z 35008KT 07/07 A2994 RMK A01 T00740074  RH  100%=      5-min Rain = 0
KDO1 161412Z 36009KT 08/08 A2995 RMK A01 T00750075  RH  100%=      5-min Rain = 0
KDO1 161413Z 36010KT 08/08 A2995 RMK A01 T00750075  RH  100%=      5-min Rain = 0
KDO1 161414Z 36008KT 08/08 A2995 RMK A01 T00750075  RH  100%=      5-min Rain = 0
KDO1 161415Z 35011KT 08/08 A2995 RMK A01 T00750075  RH  100%=      5-min Rain = 0
KDO1 161416Z 36009KT 08/08 A2995 RMK A01 T00750075  RH  100%=      5-min Rain = 0
KDO1 161417Z 00010KT 08/08 A2995 RMK A01 T00750075  RH  100%=      5-min Rain = 0
KDO1 161418Z 36009KT 08/08 A2995 RMK A01 T00750075  RH  100%=      5-min Rain = 0
KDO1 161419Z 00011KT 08/08 A2995 RMK A01 T00750075  RH  100%=      5-min Rain = 0
KDO1 161420Z 36009KT 07/07 A2995 RMK A01 T00740074  RH  100%=      5-min Rain = 0
KDO1 161421Z 36010KT 07/07 A2994 RMK A01 T00740074  RH  100%=      5-min Rain = 0
KDO1 161422Z 35010KT 07/07 A2994 RMK A01 T00740074  RH  100%=      5-min Rain = 0
KDO1 161423Z 35009KT 07/07 A2994 RMK A01 T00740074  RH  100%=      5-min Rain = 0
KDO1 161424Z 35008KT 07/07 A2995 RMK A01 T00740073  RH  100%=      5-min Rain = 0
KDO1 161425Z 35009KT 08/08 A2995 RMK A01 T00750075  RH  100%=      5-min Rain = 0
KDO1 161426Z 35008KT 08/08 A2994 RMK A01 T00750075  RH  100%=      5-min Rain = 0
KDO1 161427Z 36007KT 08/08 A2995 RMK A01 T00760076  RH  100%=      5-min Rain = 0
KDO1 161428Z 36009KT 08/08 A2995 RMK A01 T00760076  RH  100%=      5-min Rain = 0
KDO1 161429Z 35010KT 08/08 A2995 RMK A01 T00760075  RH  100%=      5-min Rain = 0
KDO1 161430Z 35009KT 08/08 A2995 RMK A01 T00760075  RH  099%=      5-min Rain = 0
KDO1 161431Z 36008KT 08/08 A2995 RMK A01 T00760075  RH  100%=      5-min Rain = 0
KDO1 161432Z 36006KT 08/08 A2995 RMK A01 T00760075  RH  099%=      5-min Rain = 0
KDO1 161433Z 36010KT 08/08 A2995 RMK A01 T00770076  RH  100%=      5-min Rain = 0
KDO1 161434Z 00011KT 08/08 A2995 RMK A01 T00770075  RH  099%=      5-min Rain = 0
KDO1 161435Z 01009KT 08/07 A2995 RMK A01 T00770074  RH  098%=      5-min Rain = 0
KDO1 161436Z 01010KT 08/08 A2995 RMK A01 T00770075  RH  099%=      5-min Rain = 0
KDO1 161437Z 00009KT 08/07 A2995 RMK A01 T00770073  RH  098%=      5-min Rain = 0
KDO1 161438Z 01009KT 08/07 A2995 RMK A01 T00770072  RH  097%=      5-min Rain = 0
KDO1 161439Z 01008KT 08/07 A2995 RMK A01 T00770073  RH  097%=      5-min Rain = 0
KDO1 161440Z 00007KT 08/08 A2995 RMK A01 T00770075  RH  098%=      5-min Rain = 0
KDO1 161441Z 35007KT 08/08 A2995 RMK A01 T00780077  RH  100%=      5-min Rain = 0
KDO1 161442Z 35011KT 08/08 A2995 RMK A01 T00780075  RH  098%=      5-min Rain = 0
KDO1 161443Z 34009KT 08/07 A2995 RMK A01 T00780074  RH  097%=      5-min Rain = 0
KDO1 161444Z 35010KT 08/07 A2995 RMK A01 T00780074  RH  098%=      5-min Rain = 0
KDO1 161445Z 35009KT 08/07 A2995 RMK A01 T00780073  RH  097%=      5-min Rain = 0
KDO1 161446Z 36010KT 08/08 A2995 RMK A01 T00770075  RH  099%=      5-min Rain = 0
KDO1 161447Z 36009KT 08/08 A2996 RMK A01 T00780075  RH  098%=      5-min Rain = 0
KDO1 161448Z 36008KT 08/08 A2996 RMK A01 T00780076  RH  099%=      5-min Rain = 0
KDO1 161449Z 36009KT 08/08 A2996 RMK A01 T00780076  RH  099%=      5-min Rain = 0
KDO1 161450Z 35011KT 08/08 A2996 RMK A01 T00780075  RH  098%=      5-min Rain = 0
KDO1 161451Z 36009KT 08/07 A2996 RMK A01 T00780074  RH  097%=      5-min Rain = 0
KDO1 161452Z 36009KT 08/08 A2996 RMK A01 T00780075  RH  098%=      5-min Rain = 0
KDO1 161453Z 35007KT 08/08 A2996 RMK A01 T00780076  RH  098%=      5-min Rain = 0
KDO1 161454Z 36008KT 08/08 A2996 RMK A01 T00790078  RH  099%=      5-min Rain = 0
KDO1 161455Z 35010KT 08/08 A2996 RMK A01 T00790076  RH  098%=      5-min Rain = 0
KDO1 161456Z 35012KT 08/08 A2996 RMK A01 T00790075  RH  098%=      5-min Rain = 0
KDO1 161457Z 34011KT 08/08 A2996 RMK A01 T00780075  RH  098%=      5-min Rain = 0
KDO1 161458Z 35010KT 08/08 A2996 RMK A01 T00780075  RH  098%=      5-min Rain = 0
KDO1 161459Z 36009KT 08/08 A2996 RMK A01 T00780077  RH  099%=      5-min Rain = 0
KDO1 161500Z 35010KT 08/08 A2996 RMK A01 T00780077  RH  099%=      5-min Rain = 0
KDO1 161501Z 35010KT 08/08 A2996 RMK A01 T00790076  RH  098%=      5-min Rain = 0
KDO1 161502Z 35011KT 08/08 A2996 RMK A01 T00790075  RH  097%=      5-min Rain = 0
KDO1 161503Z 35012KT 08/08 A2996 RMK A01 T00790075  RH  097%=      5-min Rain = 0
KDO1 161504Z 35009KT 08/07 A2996 RMK A01 T00780073  RH  097%=      5-min Rain = 0
KDO1 161505Z 35008KT 08/08 A2996 RMK A01 T00780075  RH  098%=      5-min Rain = 0
KDO1 161506Z 36006KT 08/08 A2996 RMK A01 T00790077  RH  098%=      5-min Rain = 0
KDO1 161507Z 00008KT 08/08 A2996 RMK A01 T00800077  RH  098%=      5-min Rain = 0
KDO1 161508Z 35006KT 08/08 A2996 RMK A01 T00810077  RH  098%=      5-min Rain = 0
KDO1 161509Z 35009KT 08/08 A2996 RMK A01 T00820080  RH  099%=      5-min Rain = 0
KDO1 161510Z 35011KT 08/08 A2996 RMK A01 T00820076  RH  096%=      5-min Rain = 0
KDO1 161511Z 35010KT 08/07 A2996 RMK A01 T00810074  RH  096%=      5-min Rain = 0
KDO1 161512Z 34008KT 08/07 A2997 RMK A01 T00810074  RH  096%=      5-min Rain = 0
KDO1 161513Z 34009KT 08/08 A2997 RMK A01 T00810075  RH  096%=      5-min Rain = 0
KDO1 161514Z 36009KT 08/08 A2997 RMK A01 T00800075  RH  096%=      5-min Rain = 0
KDO1 161515Z 00010G15KT 08/08 A2997 RMK A01 T00810075  RH  096%=      5-min Rain = 0
KDO1 161516Z 35007KT 08/07 A2997 RMK A01 T00800074  RH  096%=      5-min Rain = 0
KDO1 161517Z 35007KT 08/08 A2997 RMK A01 T00800077  RH  097%=      5-min Rain = 0
KDO1 161518Z 35008KT 08/08 A2997 RMK A01 T00810077  RH  097%=      5-min Rain = 0
KDO1 161519Z 36009KT 08/08 A2997 RMK A01 T00810075  RH  096%=      5-min Rain = 0
KDO1 161520Z 36010KT 08/07 A2997 RMK A01 T00800074  RH  096%=      5-min Rain = 0
KDO1 161521Z 35010KT 08/07 A2997 RMK A01 T00800074  RH  096%=      5-min Rain = 0
KDO1 161522Z 35009KT 08/07 A2997 RMK A01 T00800074  RH  096%=      5-min Rain = 0
KDO1 161523Z 36008KT 08/08 A2997 RMK A01 T00800075  RH  097%=      5-min Rain = 0
KDO1 161524Z 35009KT 08/08 A2997 RMK A01 T00800076  RH  097%=      5-min Rain = 0
KDO1 161525Z 35011KT 08/07 A2997 RMK A01 T00800074  RH  096%=      5-min Rain = 0
KDO1 161526Z 35009KT 08/07 A2997 RMK A01 T00800074  RH  096%=      5-min Rain = 0
KDO1 161527Z 36007KT 08/08 A2997 RMK A01 T00810076  RH  097%=      5-min Rain = 0
KDO1 161528Z 34010KT 08/08 A2997 RMK A01 T00820076  RH  096%=      5-min Rain = 0
KDO1 161529Z 35010KT 08/07 A2997 RMK A01 T00830074  RH  094%=      5-min Rain = 0
KDO1 161530Z 35010KT 08/07 A2997 RMK A01 T00830073  RH  093%=      5-min Rain = 0
KDO1 161531Z 35009KT 08/07 A2997 RMK A01 T00830071  RH  092%=      5-min Rain = 0
KDO1 161532Z 35012KT 08/07 A2997 RMK A01 T00830072  RH  093%=      5-min Rain = 0
KDO1 161533Z 36011KT 08/07 A2997 RMK A01 T00830071  RH  092%=      5-min Rain = 0
KDO1 161534Z 34008KT 08/07 A2997 RMK A01 T00830072  RH  093%=      5-min Rain = 0
KDO1 161535Z 34009KT 08/07 A2997 RMK A01 T00830072  RH  093%=      5-min Rain = 0
KDO1 161536Z 34008KT 08/07 A2997 RMK A01 T00830072  RH  093%=      5-min Rain = 0
KDO1 161537Z 35008KT 08/07 A2997 RMK A01 T00820073  RH  094%=      5-min Rain = 0
KDO1 161538Z 34007KT 08/07 A2997 RMK A01 T00830074  RH  094%=      5-min Rain = 0
KDO1 161539Z 34012KT 08/08 A2997 RMK A01 T00830075  RH  095%=      5-min Rain = 0
KDO1 161540Z 35012KT 08/07 A2997 RMK A01 T00840074  RH  094%=      5-min Rain = 0
KDO1 161541Z 34012KT 08/07 A2997 RMK A01 T00840073  RH  093%=      5-min Rain = 0
KDO1 161542Z 34010KT 08/08 A2997 RMK A01 T00840075  RH  094%=      5-min Rain = 0
KDO1 161543Z 34011KT 09/08 A2997 RMK A01 T00850077  RH  095%=      5-min Rain = 0
KDO1 161544Z 34013KT 09/08 A2997 RMK A01 T00850075  RH  093%=      5-min Rain = 0
KDO1 161545Z 34013KT 09/07 A2997 RMK A01 T00850073  RH  092%=      5-min Rain = 0
KDO1 161546Z 34011KT 09/07 A2997 RMK A01 T00850074  RH  093%=      5-min Rain = 0
KDO1 161547Z 34010KT 09/07 A2997 RMK A01 T00850072  RH  092%=      5-min Rain = 0
KDO1 161548Z 34011KT 09/07 A2997 RMK A01 T00850074  RH  093%=      5-min Rain = 0
KDO1 161549Z 34013KT 09/07 A2997 RMK A01 T00850073  RH  092%=      5-min Rain = 0
KDO1 161550Z 35010KT 09/07 A2997 RMK A01 T00860074  RH  093%=      5-min Rain = 0
KDO1 161551Z 35011KT 09/08 A2997 RMK A01 T00860076  RH  093%=      5-min Rain = 0
KDO1 161552Z 33012KT 09/07 A2997 RMK A01 T00850072  RH  091%=      5-min Rain = 0
KDO1 161553Z 34011KT 09/07 A2997 RMK A01 T00850072  RH  091%=      5-min Rain = 0
KDO1 161554Z 34011KT 09/07 A2997 RMK A01 T00850071  RH  091%=      5-min Rain = 0
KDO1 161555Z 34012KT 09/07 A2997 RMK A01 T00850071  RH  091%=      5-min Rain = 0
KDO1 161556Z 34011KT 09/07 A2997 RMK A01 T00850071  RH  091%=      5-min Rain = 0
KDO1 161557Z 34009KT 09/07 A2997 RMK A01 T00850072  RH  092%=      5-min Rain = 0
KDO1 161558Z 34012KT 09/07 A2997 RMK A01 T00850074  RH  093%=      5-min Rain = 0
KDO1 161559Z 33013KT 09/07 A2997 RMK A01 T00860073  RH  092%=      5-min Rain = 0
KDO1 161600Z 33011KT 09/07 A2997 RMK A01 T00860073  RH  092%=      5-min Rain = 0
KDO1 161601Z 34012KT 09/07 A2997 RMK A01 T00860074  RH  092%=      5-min Rain = 0
KDO1 161602Z 33010G15KT 09/08 A2998 RMK A01 T00860075  RH  093%=      5-min Rain = 0
KDO1 161603Z 33013KT 09/08 A2997 RMK A01 T00860075  RH  092%=      5-min Rain = 0
KDO1 161604Z 33011KT 09/07 A2997 RMK A01 T00860074  RH  092%=      5-min Rain = 0
KDO1 161605Z 35011KT 09/08 A2997 RMK A01 T00860076  RH  093%=      5-min Rain = 0
KDO1 161606Z 34011KT 09/08 A2998 RMK A01 T00870077  RH  093%=      5-min Rain = 0
KDO1 161607Z 35010KT 09/08 A2997 RMK A01 T00870075  RH  092%=      5-min Rain = 0
KDO1 161608Z 34011KT 09/08 A2997 RMK A01 T00880078  RH  093%=      5-min Rain = 0
KDO1 161609Z 35012KT 09/07 A2997 RMK A01 T00890074  RH  091%=      5-min Rain = 0
KDO1 161610Z 35009KT 09/08 A2997 RMK A01 T00890077  RH  092%=      5-min Rain = 0
KDO1 161611Z 34008KT 09/08 A2997 RMK A01 T00910080  RH  093%=      5-min Rain = 0
KDO1 161612Z 33015KT 09/08 A2997 RMK A01 T00910077  RH  091%=      5-min Rain = 0
KDO1 161613Z 34012KT 09/07 A2997 RMK A01 T00900073  RH  089%=      5-min Rain = 0
KDO1 161614Z 33011KT 09/07 A2997 RMK A01 T00900074  RH  090%=      5-min Rain = 0
KDO1 161615Z 34009KT 09/08 A2997 RMK A01 T00910078  RH  092%=      5-min Rain = 0
KDO1 161616Z 34012KT 09/08 A2997 RMK A01 T00930079  RH  091%=      5-min Rain = 0
KDO1 161617Z 34012KT 09/08 A2997 RMK A01 T00940076  RH  089%=      5-min Rain = 0
KDO1 161618Z 34010KT 09/08 A2997 RMK A01 T00940076  RH  089%=      5-min Rain = 0
KDO1 161619Z 33012KT 09/07 A2997 RMK A01 T00940074  RH  088%=      5-min Rain = 0
KDO1 161620Z 33011KT 09/07 A2997 RMK A01 T00930074  RH  088%=      5-min Rain = 0
KDO1 161621Z 34010KT 09/08 A2997 RMK A01 T00930076  RH  089%=      5-min Rain = 0
KDO1 161622Z 34009KT 09/08 A2997 RMK A01 T00940080  RH  091%=      5-min Rain = 0
KDO1 161623Z 34008KT 10/08 A2997 RMK A01 T00950080  RH  090%=      5-min Rain = 0
KDO1 161624Z 34011KT 10/08 A2997 RMK A01 T00960079  RH  089%=      5-min Rain = 0
KDO1 161625Z 34010KT 10/08 A2997 RMK A01 T00970079  RH  089%=      5-min Rain = 0
KDO1 161626Z 34012KT 10/08 A2997 RMK A01 T00970077  RH  087%=      5-min Rain = 0
KDO1 161627Z 34012KT 10/08 A2998 RMK A01 T00970076  RH  087%=      5-min Rain = 0
KDO1 161628Z 34013KT 10/07 A2998 RMK A01 T00950074  RH  087%=      5-min Rain = 0
KDO1 161629Z 34014KT 10/08 A2998 RMK A01 T00950075  RH  087%=      5-min Rain = 0
KDO1 161630Z 34012KT 10/07 A2998 RMK A01 T00950074  RH  087%=      5-min Rain = 0
KDO1 161631Z 35010KT 10/08 A2998 RMK A01 T00950075  RH  087%=      5-min Rain = 0
KDO1 161632Z 35011KT 10/08 A2998 RMK A01 T00970080  RH  089%=      5-min Rain = 0
KDO1 161633Z 34011KT 10/08 A2998 RMK A01 T00980077  RH  086%=      5-min Rain = 0
KDO1 161634Z 35007KT 10/08 A2998 RMK A01 T00980078  RH  087%=      5-min Rain = 0
KDO1 161635Z 35011G16KT 10/08 A2998 RMK A01 T01000082  RH  089%=      5-min Rain = 0
KDO1 161636Z 35013KT 10/08 A2998 RMK A01 T01010077  RH  085%=      5-min Rain = 0
KDO1 161637Z 35012KT 10/07 A2997 RMK A01 T01000073  RH  083%=      5-min Rain = 0
KDO1 161638Z 35012KT 10/07 A2997 RMK A01 T00980073  RH  084%=      5-min Rain = 0
KDO1 161639Z 35011KT 10/08 A2997 RMK A01 T00990078  RH  087%=      5-min Rain = 0
KDO1 161640Z 35014KT 10/08 A2997 RMK A01 T01000076  RH  085%=      5-min Rain = 0
KDO1 161641Z 36014KT 10/08 A2997 RMK A01 T01000075  RH  084%=      5-min Rain = 0
KDO1 161642Z 34012KT 10/08 A2997 RMK A01 T01000075  RH  084%=      5-min Rain = 0
KDO1 161643Z 34010KT 10/08 A2997 RMK A01 T01010079  RH  086%=      5-min Rain = 0
KDO1 161644Z 34009KT 10/08 A2997 RMK A01 T01030083  RH  087%=      5-min Rain = 0
KDO1 161645Z 34011KT 10/08 A2997 RMK A01 T01040083  RH  087%=      5-min Rain = 0
KDO1 161646Z 32013KT 10/08 A2997 RMK A01 T01030078  RH  084%=      5-min Rain = 0
KDO1 161647Z 33010KT 10/08 A2997 RMK A01 T01010076  RH  085%=      5-min Rain = 0
KDO1 161648Z 33012KT 10/08 A2997 RMK A01 T01000079  RH  087%=      5-min Rain = 0
KDO1 161649Z 34014KT 10/08 A2997 RMK A01 T01000076  RH  085%=      5-min Rain = 0
KDO1 161650Z 35013KT 10/08 A2997 RMK A01 T01010075  RH  084%=      5-min Rain = 0
KDO1 161651Z 35013KT 10/07 A2997 RMK A01 T01010073  RH  083%=      5-min Rain = 0
KDO1 161652Z 35011KT 10/08 A2997 RMK A01 T01020080  RH  086%=      5-min Rain = 0
KDO1 161653Z 34011G16KT 11/08 A2997 RMK A01 T01050083  RH  086%=      5-min Rain = 0
KDO1 161654Z 35013KT 11/08 A2997 RMK A01 T01070080  RH  084%=      5-min Rain = 0
KDO1 161655Z 00010G15KT 11/08 A2997 RMK A01 T01060079  RH  083%=      5-min Rain = 0
KDO1 161656Z 35010KT 11/08 A2997 RMK A01 T01060081  RH  084%=      5-min Rain = 0
KDO1 161657Z 35014KT 11/08 A2997 RMK A01 T01060077  RH  083%=      5-min Rain = 0
KDO1 161658Z 36015KT 10/08 A2998 RMK A01 T01030075  RH  082%=      5-min Rain = 0.01
KDO1 161659Z 36012KT 10/07 A2998 RMK A01 T01020073  RH  082%=      5-min Rain = 0
KDO1 161700Z 35010G15KT 10/08 A2998 RMK A01 T01020075  RH  083%=      5-min Rain = 0
KDO1 161701Z 34010KT 10/08 A2997 RMK A01 T01030077  RH  084%=      5-min Rain = 0
KDO1 161702Z 34016KT 10/08 A2998 RMK A01 T01040076  RH  083%=      5-min Rain = 0
KDO1 161703Z 34014KT 10/07 A2998 RMK A01 T01030073  RH  082%=      5-min Rain = 0
KDO1 161704Z 34013KT 10/08 A2997 RMK A01 T01030075  RH  083%=      5-min Rain = 0
KDO1 161705Z 33014KT 10/07 A2997 RMK A01 T01030073  RH  082%=      5-min Rain = 0
KDO1 161706Z 34010KT 10/07 A2997 RMK A01 T01010073  RH  083%=      5-min Rain = 0
KDO1 161707Z 34012KT 10/08 A2997 RMK A01 T01020077  RH  085%=      5-min Rain = 0
KDO1 161708Z 34012KT 10/08 A2998 RMK A01 T01020076  RH  084%=      5-min Rain = 0
KDO1 161709Z 36013KT 10/08 A2998 RMK A01 T01030075  RH  083%=      5-min Rain = 0
KDO1 161710Z 35010KT 10/08 A2997 RMK A01 T01030076  RH  083%=      5-min Rain = 0
KDO1 161711Z 35009KT 11/08 A2997 RMK A01 T01060082  RH  085%=      5-min Rain = 0
KDO1 161712Z 35010G15KT 11/08 A2997 RMK A01 T01090084  RH  085%=      5-min Rain = 0
KDO1 161713Z 35008KT 11/08 A2997 RMK A01 T01100083  RH  083%=      5-min Rain = 0
KDO1 161714Z 36013KT 11/09 A2997 RMK A01 T01120085  RH  083%=      5-min Rain = 0
KDO1 161715Z 35013KT 11/08 A2998 RMK A01 T01130082  RH  081%=      5-min Rain = 0
KDO1 161716Z 36016KT 11/08 A2998 RMK A01 T01120079  RH  080%=      5-min Rain = 0
KDO1 161717Z 36013G18KT 11/08 A2998 RMK A01 T01100075  RH  079%=      5-min Rain = 0
KDO1 161718Z 36013KT 11/08 A2998 RMK A01 T01090077  RH  081%=      5-min Rain = 0
KDO1 161719Z 35016KT 11/07 A2998 RMK A01 T01070072  RH  079%=      5-min Rain = 0
KDO1 161720Z 36017KT 11/07 A2998 RMK A01 T01050071  RH  080%=      5-min Rain = 0
KDO1 161721Z 34013KT 10/07 A2998 RMK A01 T01040072  RH  080%=      5-min Rain = 0
KDO1 161722Z 34012G18KT 10/07 A2998 RMK A01 T01040074  RH  082%=      5-min Rain = 0
KDO1 161723Z 34016KT 10/07 A2998 RMK A01 T01040071  RH  080%=      5-min Rain = 0
KDO1 161724Z 35010G15KT 10/07 A2998 RMK A01 T01030071  RH  081%=      5-min Rain = 0
KDO1 161725Z 35015KT 10/07 A2998 RMK A01 T01040073  RH  081%=      5-min Rain = 0
KDO1 161726Z 34015KT 10/07 A2998 RMK A01 T01040072  RH  080%=      5-min Rain = 0
KDO1 161727Z 35014KT 10/07 A2998 RMK A01 T01040072  RH  080%=      5-min Rain = 0
KDO1 161728Z 35012KT 10/07 A2998 RMK A01 T01040072  RH  080%=      5-min Rain = 0
KDO1 161729Z 36014KT 11/07 A2998 RMK A01 T01050072  RH  080%=      5-min Rain = 0
KDO1 161730Z 35014G20KT 11/07 A2998 RMK A01 T01050071  RH  079%=      5-min Rain = 0
KDO1 161731Z 35011KT 11/07 A2998 RMK A01 T01050073  RH  081%=      5-min Rain = 0
KDO1 161732Z 34014G21KT 11/08 A2998 RMK A01 T01060075  RH  082%=      5-min Rain = 0
KDO1 161733Z 35013KT 11/07 A2998 RMK A01 T01060073  RH  080%=      5-min Rain = 0
KDO1 161734Z 35016KT 11/07 A2997 RMK A01 T01060070  RH  079%=      5-min Rain = 0
KDO1 161735Z 35018KT 11/07 A2997 RMK A01 T01050070  RH  079%=      5-min Rain = 0
KDO1 161736Z 35014G20KT 10/07 A2997 RMK A01 T01030069  RH  079%=      5-min Rain = 0
KDO1 161737Z 35015KT 10/07 A2998 RMK A01 T01030069  RH  080%=      5-min Rain = 0
KDO1 161738Z 35017KT 10/07 A2998 RMK A01 T01020067  RH  079%=      5-min Rain = 0
KDO1 161739Z 35019KT 10/07 A2998 RMK A01 T01020065  RH  078%=      5-min Rain = 0
KDO1 161740Z 34017KT 10/06 A2998 RMK A01 T01020064  RH  078%=      5-min Rain = 0
KDO1 161741Z 35016KT 10/07 A2998 RMK A01 T01010065  RH  078%=      5-min Rain = 0
KDO1 161742Z 35018KT 10/07 A2998 RMK A01 T01010066  RH  079%=      5-min Rain = 0
KDO1 161743Z 36016G21KT 10/07 A2998 RMK A01 T01010065  RH  078%=      5-min Rain = 0
KDO1 161744Z 35015KT 10/07 A2998 RMK A01 T01010067  RH  079%=      5-min Rain = 0
KDO1 161745Z 35015KT 10/07 A2998 RMK A01 T01020067  RH  079%=      5-min Rain = 0
KDO1 161746Z 35016KT 10/07 A2998 RMK A01 T01020066  RH  078%=      5-min Rain = 0
KDO1 161747Z 35014KT 10/07 A2998 RMK A01 T01020067  RH  079%=      5-min Rain = 0
KDO1 161748Z 34018KT 10/06 A2998 RMK A01 T01020064  RH  078%=      5-min Rain = 0
KDO1 161749Z 35016KT 10/06 A2998 RMK A01 T01020062  RH  077%=      5-min Rain = 0
KDO1 161750Z 35013KT 10/07 A2998 RMK A01 T01020066  RH  078%=      5-min Rain = 0
KDO1 161751Z 34015KT 10/07 A2998 RMK A01 T01040067  RH  078%=      5-min Rain = 0
KDO1 161752Z 35015G20KT 11/07 A2998 RMK A01 T01050067  RH  077%=      5-min Rain = 0
KDO1 161753Z 35018KT 11/07 A2998 RMK A01 T01060065  RH  076%=      5-min Rain = 0
KDO1 161754Z 34015KT 11/06 A2998 RMK A01 T01050063  RH  075%=      5-min Rain = 0
KDO1 161755Z 34016KT 10/07 A2998 RMK A01 T01040066  RH  077%=      5-min Rain = 0
KDO1 161756Z 35017KT 10/07 A2998 RMK A01 T01040068  RH  078%=      5-min Rain = 0
KDO1 161757Z 35018KT 10/07 A2998 RMK A01 T01040065  RH  077%=      5-min Rain = 0
KDO1 161758Z 35016G22KT 10/06 A2998 RMK A01 T01030064  RH  077%=      5-min Rain = 0
KDO1 161759Z 35016KT 10/07 A2998 RMK A01 T01020067  RH  079%=      5-min Rain = 0
KDO1 161800Z 35014KT 10/07 A2998 RMK A01 T01010066  RH  079%=      5-min Rain = 0
KDO1 161801Z 34012KT 10/07 A2998 RMK A01 T01000068  RH  080%=      5-min Rain = 0
KDO1 161802Z 34015KT 10/07 A2998 RMK A01 T01000066  RH  079%=      5-min Rain = 0
KDO1 161803Z 34016KT 10/06 A2998 RMK A01 T01000064  RH  078%=      5-min Rain = 0
KDO1 161804Z 34017KT 10/07 A2998 RMK A01 T01000065  RH  079%=      5-min Rain = 0
KDO1 161805Z 34014G19KT 10/06 A2998 RMK A01 T00990064  RH  079%=      5-min Rain = 0
KDO1 161806Z 34013KT 10/07 A2998 RMK A01 T01000068  RH  081%=      5-min Rain = 0
KDO1 161807Z 35013G18KT 10/07 A2998 RMK A01 T01020070  RH  080%=      5-min Rain = 0
KDO1 161808Z 35014KT 10/07 A2998 RMK A01 T01020067  RH  078%=      5-min Rain = 0
KDO1 161809Z 35010G15KT 10/07 A2998 RMK A01 T01020067  RH  078%=      5-min Rain = 0
KDO1 161810Z 34013KT 10/07 A2998 RMK A01 T01040071  RH  080%=      5-min Rain = 0
KDO1 161811Z 34013KT 11/07 A2998 RMK A01 T01060066  RH  077%=      5-min Rain = 0
KDO1 161812Z 35014KT 11/07 A2998 RMK A01 T01060067  RH  077%=      5-min Rain = 0
KDO1 161813Z 34017KT 11/07 A2998 RMK A01 T01080068  RH  076%=      5-min Rain = 0
KDO1 161814Z 34013KT 11/07 A2998 RMK A01 T01080067  RH  076%=      5-min Rain = 0
KDO1 161815Z 34010KT 11/07 A2998 RMK A01 T01080071  RH  078%=      5-min Rain = 0
KDO1 161816Z 36013G19KT 11/07 A2998 RMK A01 T01100073  RH  078%=      5-min Rain = 0
KDO1 161817Z 36017KT 11/07 A2998 RMK A01 T01090068  RH  076%=      5-min Rain = 0
KDO1 161818Z 35016KT 11/07 A2998 RMK A01 T01060067  RH  077%=      5-min Rain = 0
KDO1 161819Z 35015KT 11/07 A2998 RMK A01 T01050066  RH  077%=      5-min Rain = 0
KDO1 161820Z 36013G18KT 11/07 A2998 RMK A01 T01050067  RH  077%=      5-min Rain = 0
KDO1 161821Z 34013KT 11/07 A2998 RMK A01 T01070071  RH  078%=      5-min Rain = 0
KDO1 161822Z 34012G17KT 11/07 A2998 RMK A01 T01090072  RH  078%=      5-min Rain = 0
KDO1 161823Z 34013KT 11/07 A2998 RMK A01 T01100068  RH  075%=      5-min Rain = 0
KDO1 161824Z 34015KT 11/07 A2998 RMK A01 T01090068  RH  075%=      5-min Rain = 0
KDO1 161825Z 35014G19KT 11/07 A2998 RMK A01 T01090066  RH  075%=      5-min Rain = 0
KDO1 161826Z 34013G18KT 11/06 A2998 RMK A01 T01090063  RH  074%=      5-min Rain = 0
KDO1 161827Z 33015G20KT 11/06 A2997 RMK A01 T01080064  RH  074%=      5-min Rain = 0
KDO1 161828Z 34017G22KT 11/07 A2998 RMK A01 T01080065  RH  074%=      5-min Rain = 0
KDO1 161829Z 34017KT 11/06 A2998 RMK A01 T01080064  RH  074%=      5-min Rain = 0
KDO1 161830Z 34018KT 11/06 A2998 RMK A01 T01080063  RH  074%=      5-min Rain = 0
KDO1 161831Z 34017KT 11/06 A2998 RMK A01 T01080063  RH  074%=      5-min Rain = 0
KDO1 161832Z 34020KT 11/06 A2998 RMK A01 T01080062  RH  073%=      5-min Rain = 0
KDO1 161833Z 34014KT 11/06 A2998 RMK A01 T01070062  RH  073%=      5-min Rain = 0
KDO1 161834Z 34014KT 11/06 A2998 RMK A01 T01070063  RH  074%=      5-min Rain = 0
KDO1 161835Z 34015KT 11/07 A2998 RMK A01 T01060065  RH  075%=      5-min Rain = 0
KDO1 161836Z 34017KT 11/06 A2998 RMK A01 T01070064  RH  075%=      5-min Rain = 0
KDO1 161837Z 35017KT 11/06 A2998 RMK A01 T01070064  RH  075%=      5-min Rain = 0
KDO1 161838Z 34019KT 11/06 A2998 RMK A01 T01060064  RH  075%=      5-min Rain = 0
KDO1 161839Z 34019KT 11/06 A2998 RMK A01 T01050063  RH  075%=      5-min Rain = 0
KDO1 161840Z 34019KT 10/06 A2998 RMK A01 T01030061  RH  075%=      5-min Rain = 0
KDO1 161841Z 34019KT 10/06 A2998 RMK A01 T01030061  RH  075%=      5-min Rain = 0
KDO1 161842Z 35016G21KT 10/06 A2998 RMK A01 T01020062  RH  076%=      5-min Rain = 0
KDO1 161843Z 34017KT 10/06 A2998 RMK A01 T01020060  RH  075%=      5-min Rain = 0
KDO1 161844Z 35016KT 10/06 A2998 RMK A01 T01010060  RH  076%=      5-min Rain = 0
KDO1 161845Z 34014KT 10/06 A2998 RMK A01 T01020063  RH  076%=      5-min Rain = 0
KDO1 161846Z 33013G18KT 10/07 A2998 RMK A01 T01030067  RH  078%=      5-min Rain = 0
KDO1 161847Z 33015KT 11/07 A2998 RMK A01 T01050067  RH  077%=      5-min Rain = 0
KDO1 161848Z 33016KT 11/07 A2999 RMK A01 T01060066  RH  076%=      5-min Rain = 0
KDO1 161849Z 34018KT 11/07 A2999 RMK A01 T01060066  RH  076%=      5-min Rain = 0
KDO1 161850Z 34013KT 11/07 A2999 RMK A01 T01070065  RH  075%=      5-min Rain = 0
KDO1 161851Z 34013KT 11/07 A2999 RMK A01 T01070067  RH  077%=      5-min Rain = 0
KDO1 161852Z 34015KT 11/07 A2999 RMK A01 T01080068  RH  076%=      5-min Rain = 0
KDO1 161853Z 34013G19KT 11/07 A2999 RMK A01 T01090067  RH  075%=      5-min Rain = 0
KDO1 161854Z 34016G21KT 11/07 A2999 RMK A01 T01100067  RH  075%=      5-min Rain = 0
KDO1 161855Z 34017KT 11/06 A2999 RMK A01 T01100063  RH  073%=      5-min Rain = 0
KDO1 161856Z 34018KT 11/06 A2999 RMK A01 T01100064  RH  073%=      5-min Rain = 0
KDO1 161857Z 35012G18KT 11/06 A2999 RMK A01 T01100064  RH  073%=      5-min Rain = 0
KDO1 161858Z 34014G19KT 11/07 A2998 RMK A01 T01120067  RH  074%=      5-min Rain = 0
KDO1 161859Z 34016G22KT 11/07 A2998 RMK A01 T01140071  RH  075%=      5-min Rain = 0
KDO1 161900Z 34013KT 11/07 A2998 RMK A01 T01140067  RH  073%=      5-min Rain = 0
KDO1 161901Z 34015KT 11/07 A2998 RMK A01 T01140070  RH  074%=      5-min Rain = 0
KDO1 161902Z 35017G23KT 11/07 A2998 RMK A01 T01130066  RH  073%=      5-min Rain = 0
KDO1 161903Z 35015KT 11/07 A2998 RMK A01 T01130065  RH  072%=      5-min Rain = 0
KDO1 161904Z 34012KT 11/07 A2998 RMK A01 T01140068  RH  074%=      5-min Rain = 0
KDO1 161905Z 35015G22KT 12/07 A2999 RMK A01 T01160071  RH  074%=      5-min Rain = 0
KDO1 161906Z 34018KT 12/06 A2998 RMK A01 T01160063  RH  070%=      5-min Rain = 0
KDO1 161907Z 34015KT 11/06 A2998 RMK A01 T01140062  RH  070%=      5-min Rain = 0
KDO1 161908Z 34017KT 11/07 A2998 RMK A01 T01140065  RH  072%=      5-min Rain = 0
KDO1 161909Z 35015KT 11/06 A2998 RMK A01 T01140062  RH  071%=      5-min Rain = 0
KDO1 161910Z 34017G24KT 11/07 A2999 RMK A01 T01140066  RH  072%=      5-min Rain = 0
KDO1 161911Z 35015G21KT 11/07 A2998 RMK A01 T01140066  RH  073%=      5-min Rain = 0
KDO1 161912Z 35016KT 11/06 A2998 RMK A01 T01140063  RH  071%=      5-min Rain = 0
KDO1 161913Z 35017KT 11/06 A2998 RMK A01 T01140063  RH  071%=      5-min Rain = 0
KDO1 161914Z 35015KT 11/06 A2998 RMK A01 T01140064  RH  071%=      5-min Rain = 0
KDO1 161915Z 35012KT 12/06 A2998 RMK A01 T01150064  RH  071%=      5-min Rain = 0
KDO1 161916Z 34014KT 12/06 A2998 RMK A01 T01150064  RH  071%=      5-min Rain = 0
KDO1 161917Z 33015G20KT 12/06 A2998 RMK A01 T01150062  RH  070%=      5-min Rain = 0
KDO1 161918Z 34020KT 12/06 A2998 RMK A01 T01150063  RH  070%=      5-min Rain = 0
KDO1 161919Z 34017KT 12/06 A2998 RMK A01 T01150060  RH  069%=      5-min Rain = 0
KDO1 161920Z 35013KT 11/06 A2998 RMK A01 T01140061  RH  070%=      5-min Rain = 0
KDO1 161921Z 35016G22KT 11/06 A2998 RMK A01 T01130061  RH  070%=      5-min Rain = 0
KDO1 161922Z 34018KT 11/06 A2998 RMK A01 T01120063  RH  071%=      5-min Rain = 0
KDO1 161923Z 34018G23KT 11/06 A2999 RMK A01 T01120063  RH  072%=      5-min Rain = 0
KDO1 161924Z 35020KT 11/06 A2999 RMK A01 T01110062  RH  072%=      5-min Rain = 0
KDO1 161925Z 35015G20KT 11/06 A2999 RMK A01 T01090061  RH  072%=      5-min Rain = 0
KDO1 161926Z 35016KT 11/06 A2999 RMK A01 T01090063  RH  073%=      5-min Rain = 0
KDO1 161927Z 35018G23KT 11/06 A2999 RMK A01 T01080061  RH  073%=      5-min Rain = 0
KDO1 161928Z 35016G21KT 11/06 A2999 RMK A01 T01070062  RH  074%=      5-min Rain = 0
KDO1 161929Z 35015KT 11/06 A2999 RMK A01 T01070062  RH  074%=      5-min Rain = 0
KDO1 161930Z 35018KT 11/06 A2999 RMK A01 T01070063  RH  074%=      5-min Rain = 0
KDO1 161931Z 34020KT 11/06 A2999 RMK A01 T01070060  RH  073%=      5-min Rain = 0
KDO1 161932Z 34016KT 11/06 A2999 RMK A01 T01070061  RH  073%=      5-min Rain = 0
KDO1 161933Z 34017G22KT 11/06 A2999 RMK A01 T01080063  RH  074%=      5-min Rain = 0
KDO1 161934Z 34016KT 11/06 A2999 RMK A01 T01090061  RH  072%=      5-min Rain = 0
KDO1 161935Z 34017G22KT 11/06 A2999 RMK A01 T01100062  RH  072%=      5-min Rain = 0
KDO1 161936Z 33015G21KT 11/07 A2999 RMK A01 T01120066  RH  074%=      5-min Rain = 0
KDO1 161937Z 34020KT 12/07 A2999 RMK A01 T01150066  RH  072%=      5-min Rain = 0
KDO1 161938Z 33020G25KT 12/06 A2999 RMK A01 T01150063  RH  070%=      5-min Rain = 0
KDO1 161939Z 34020KT 11/06 A2999 RMK A01 T01140059  RH  069%=      5-min Rain = 0
KDO1 161940Z 34018KT 11/06 A2999 RMK A01 T01120059  RH  070%=      5-min Rain = 0
KDO1 161941Z 33014G19KT 11/06 A2999 RMK A01 T01120062  RH  071%=      5-min Rain = 0
KDO1 161942Z 33016G21KT 11/07 A2999 RMK A01 T01130066  RH  073%=      5-min Rain = 0
KDO1 161943Z 33018G24KT 12/07 A2999 RMK A01 T01150065  RH  071%=      5-min Rain = 0
KDO1 161944Z 33018G24KT 12/06 A2999 RMK A01 T01150064  RH  071%=      5-min Rain = 0
KDO1 161945Z 33015KT 11/06 A2999 RMK A01 T01140064  RH  071%=      5-min Rain = 0
KDO1 161946Z 33020KT 11/06 A2999 RMK A01 T01140063  RH  071%=      5-min Rain = 0
KDO1 161947Z 33017KT 11/06 A2999 RMK A01 T01130063  RH  071%=      5-min Rain = 0
KDO1 161948Z 33017G22KT 11/06 A2999 RMK A01 T01130063  RH  071%=      5-min Rain = 0
KDO1 161949Z 35013G19KT 12/07 A2999 RMK A01 T01150067  RH  073%=      5-min Rain = 0
KDO1 161950Z 33014G20KT 12/07 A2999 RMK A01 T01160069  RH  073%=      5-min Rain = 0
KDO1 161951Z 33014G21KT 12/08 A2999 RMK A01 T01190077  RH  075%=      5-min Rain = 0
KDO1 161952Z 34024KT 12/08 A2999 RMK A01 T01220075  RH  073%=      5-min Rain = 0
KDO1 161953Z 34023KT 12/07 A2999 RMK A01 T01200065  RH  069%=      5-min Rain = 0
KDO1 161954Z 34021KT 12/07 A2999 RMK A01 T01180066  RH  070%=      5-min Rain = 0
KDO1 161955Z 34016KT 12/07 A2999 RMK A01 T01160067  RH  072%=      5-min Rain = 0
KDO1 161956Z 33018KT 12/07 A2999 RMK A01 T01150067  RH  072%=      5-min Rain = 0
KDO1 161957Z 33018G24KT 11/06 A2999 RMK A01 T01130064  RH  072%=      5-min Rain = 0
KDO1 161958Z 34020KT 11/06 A2999 RMK A01 T01110063  RH  072%=      5-min Rain = 0
KDO1 161959Z 34017KT 11/06 A2999 RMK A01 T01110062  RH  072%=      5-min Rain = 0
KDO1 162000Z 35016KT 12/07 A2999 RMK A01 T01150068  RH  073%=      5-min Rain = 0
KDO1 162001Z 35017G24KT 12/07 A2999 RMK A01 T01190072  RH  073%=      5-min Rain = 0
KDO1 162002Z 35020KT 12/06 A30 RMK A01 T01180064  RH  069%=      5-min Rain = 0
KDO1 162003Z 34019KT 11/06 A30 RMK A01 T01140059  RH  069%=      5-min Rain = 0
KDO1 162004Z 34017KT 11/06 A30 RMK A01 T01120059  RH  070%=      5-min Rain = 0
KDO1 162005Z 33017KT 11/06 A2999 RMK A01 T01110060  RH  071%=      5-min Rain = 0
KDO1 162006Z 33015KT 11/06 A2999 RMK A01 T01130064  RH  072%=      5-min Rain = 0
KDO1 162007Z 33012KT 11/07 A2999 RMK A01 T01140066  RH  072%=      5-min Rain = 0
KDO1 162008Z 33014G19KT 12/07 A2999 RMK A01 T01160066  RH  071%=      5-min Rain = 0
KDO1 162009Z 33017KT 12/06 A2999 RMK A01 T01160063  RH  070%=      5-min Rain = 0
KDO1 162010Z 34014KT 12/06 A2999 RMK A01 T01150061  RH  070%=      5-min Rain = 0
KDO1 162011Z 35017KT 11/06 A30 RMK A01 T01140061  RH  070%=      5-min Rain = 0
KDO1 162012Z 35018KT 11/06 A30 RMK A01 T01140063  RH  071%=      5-min Rain = 0
KDO1 162013Z 34017G22KT 12/06 A30 RMK A01 T01150060  RH  069%=      5-min Rain = 0
KDO1 162014Z 35011KT 12/07 A30 RMK A01 T01160066  RH  072%=      5-min Rain = 0
KDO1 162015Z 35017KT 12/07 A30 RMK A01 T01180065  RH  070%=      5-min Rain = 0
KDO1 162016Z 35017KT 12/06 A30 RMK A01 T01170063  RH  069%=      5-min Rain = 0
KDO1 162017Z 36015G21KT 12/07 A30 RMK A01 T01150065  RH  071%=      5-min Rain = 0
KDO1 162018Z 36018KT 11/06 A30 RMK A01 T01130063  RH  071%=      5-min Rain = 0
KDO1 162019Z 35017G24KT 11/06 A30 RMK A01 T01100063  RH  073%=      5-min Rain = 0
KDO1 162020Z 00020KT 11/06 A30 RMK A01 T01070060  RH  073%=      5-min Rain = 0
KDO1 162021Z 00017KT 10/06 A30 RMK A01 T01040058  RH  073%=      5-min Rain = 0
KDO1 162022Z 35019G24KT 10/06 A30 RMK A01 T01030060  RH  074%=      5-min Rain = 0
KDO1 162023Z 35016KT 10/06 A30 RMK A01 T01030061  RH  075%=      5-min Rain = 0
KDO1 162024Z 00016G21KT 10/06 A30 RMK A01 T01030060  RH  075%=      5-min Rain = 0
KDO1 162025Z 00015G21KT 10/06 A30 RMK A01 T01030059  RH  074%=      5-min Rain = 0
KDO1 162026Z 00014G19KT 10/06 A30 RMK A01 T01030061  RH  075%=      5-min Rain = 0
KDO1 162027Z 36014KT 10/06 A30 RMK A01 T01020059  RH  074%=      5-min Rain = 0
KDO1 162028Z 35015KT 10/06 A30 RMK A01 T01030061  RH  075%=      5-min Rain = 0
KDO1 162029Z 35017KT 10/06 A30 RMK A01 T01040060  RH  074%=      5-min Rain = 0
KDO1 162030Z 35016G21KT 10/06 A30 RMK A01 T01040058  RH  073%=      5-min Rain = 0
KDO1 162031Z 35014G19KT 10/06 A30 RMK A01 T01040060  RH  074%=      5-min Rain = 0
KDO1 162032Z 34013G22KT 10/06 A30 RMK A01 T01040061  RH  074%=      5-min Rain = 0
KDO1 162033Z 35014KT 10/06 A30 RMK A01 T01040061  RH  074%=      5-min Rain = 0
KDO1 162034Z 35014G19KT 10/06 A30 RMK A01 T01040059  RH  074%=      5-min Rain = 0
KDO1 162035Z 34013G18KT 10/06 A30 RMK A01 T01040060  RH  075%=      5-min Rain = 0
KDO1 162036Z 34019G24KT 10/06 A30 RMK A01 T01040062  RH  076%=      5-min Rain = 0
KDO1 162037Z 35019KT 10/06 A30 RMK A01 T01020060  RH  075%=      5-min Rain = 0
KDO1 162038Z 34020G25KT 10/06 A3001 RMK A01 T01000059  RH  076%=      5-min Rain = 0
KDO1 162039Z 34019KT 10/06 A3001 RMK A01 T00980058  RH  076%=      5-min Rain = 0
KDO1 162040Z 35017G23KT 10/06 A3001 RMK A01 T00980060  RH  077%=      5-min Rain = 0
KDO1 162041Z 34019KT 10/06 A3001 RMK A01 T00980062  RH  078%=      5-min Rain = 0
KDO1 162042Z 35018KT 10/06 A3001 RMK A01 T00980062  RH  078%=      5-min Rain = 0
KDO1 162043Z 36020G25KT 10/06 A3001 RMK A01 T00970062  RH  079%=      5-min Rain = 0
KDO1 162044Z 35016KT 10/06 A3001 RMK A01 T00960061  RH  079%=      5-min Rain = 0
KDO1 162045Z 35019KT 10/06 A3001 RMK A01 T00950061  RH  079%=      5-min Rain = 0
KDO1 162046Z 35019KT 10/06 A3001 RMK A01 T00950060  RH  079%=      5-min Rain = 0
KDO1 162047Z 36014KT 09/06 A3001 RMK A01 T00940060  RH  079%=      5-min Rain = 0
KDO1 162048Z 36014KT 10/06 A3001 RMK A01 T00950062  RH  080%=      5-min Rain = 0
KDO1 162049Z 36012G17KT 10/06 A3001 RMK A01 T00960062  RH  079%=      5-min Rain = 0
KDO1 162050Z 36014KT 10/06 A3001 RMK A01 T00970063  RH  079%=      5-min Rain = 0
KDO1 162051Z 36014KT 10/06 A3001 RMK A01 T00990062  RH  078%=      5-min Rain = 0
KDO1 162052Z 35013KT 10/06 A3001 RMK A01 T01000064  RH  078%=      5-min Rain = 0
KDO1 162053Z 36015KT 10/06 A3001 RMK A01 T01010064  RH  077%=      5-min Rain = 0
KDO1 162054Z 36016G21KT 10/06 A3001 RMK A01 T01010063  RH  077%=      5-min Rain = 0
KDO1 162055Z 35016G22KT 10/06 A3001 RMK A01 T01010062  RH  077%=      5-min Rain = 0
KDO1 162056Z 00011G16KT 10/06 A3001 RMK A01 T01010064  RH  078%=      5-min Rain = 0
KDO1 162057Z 35016KT 10/06 A3001 RMK A01 T01030064  RH  077%=      5-min Rain = 0
KDO1 162058Z 35015KT 10/06 A3001 RMK A01 T01040064  RH  076%=      5-min Rain = 0
KDO1 162059Z 35013G21KT 10/06 A3001 RMK A01 T01030064  RH  076%=      5-min Rain = 0
KDO1 162100Z 35019G24KT 10/06 A3001 RMK A01 T01030063  RH  076%=      5-min Rain = 0
KDO1 162101Z 35019KT 10/06 A3001 RMK A01 T01030061  RH  075%=      5-min Rain = 0
KDO1 162102Z 34018KT 10/06 A3001 RMK A01 T01010060  RH  076%=      5-min Rain = 0
KDO1 162103Z 34017G23KT 10/06 A3001 RMK A01 T01010060  RH  076%=      5-min Rain = 0
KDO1 162104Z 35016G21KT 10/06 A3001 RMK A01 T01000059  RH  076%=      5-min Rain = 0
KDO1 162105Z 35017KT 10/06 A3001 RMK A01 T01000062  RH  077%=      5-min Rain = 0
KDO1 162106Z 34016G21KT 10/06 A3001 RMK A01 T01010061  RH  076%=      5-min Rain = 0
KDO1 162107Z 35020KT 10/06 A3001 RMK A01 T01010061  RH  076%=      5-min Rain = 0
KDO1 162108Z 36013G18KT 10/06 A3001 RMK A01 T01010061  RH  076%=      5-min Rain = 0
KDO1 162109Z 36014KT 10/06 A3001 RMK A01 T01010063  RH  077%=      5-min Rain = 0
KDO1 162110Z 35016G21KT 10/06 A3001 RMK A01 T01010061  RH  076%=      5-min Rain = 0
KDO1 162111Z 36013KT 10/06 A3001 RMK A01 T01010061  RH  077%=      5-min Rain = 0
KDO1 162112Z 35012KT 10/06 A3001 RMK A01 T01010062  RH  077%=      5-min Rain = 0
KDO1 162113Z 00016KT 10/06 A3001 RMK A01 T01020063  RH  077%=      5-min Rain = 0
KDO1 162114Z 36014KT 10/06 A3001 RMK A01 T01030063  RH  076%=      5-min Rain = 0
KDO1 162115Z 00014KT 10/06 A3001 RMK A01 T01020063  RH  077%=      5-min Rain = 0
KDO1 162116Z 36016G21KT 10/06 A3001 RMK A01 T01020063  RH  077%=      5-min Rain = 0
KDO1 162117Z 36015G20KT 10/06 A3001 RMK A01 T01010062  RH  076%=      5-min Rain = 0
KDO1 162118Z 35016G23KT 10/06 A3001 RMK A01 T01010061  RH  076%=      5-min Rain = 0
KDO1 162119Z 35014KT 10/06 A3001 RMK A01 T01010061  RH  076%=      5-min Rain = 0
KDO1 162120Z 35017G22KT 10/06 A3001 RMK A01 T01010061  RH  076%=      5-min Rain = 0
KDO1 162121Z 35017KT 10/06 A3001 RMK A01 T01010057  RH  074%=      5-min Rain = 0
KDO1 162122Z 35016KT 10/06 A3001 RMK A01 T01010058  RH  075%=      5-min Rain = 0
KDO1 162123Z 34018KT 10/06 A3001 RMK A01 T01000057  RH  075%=      5-min Rain = 0
KDO1 162124Z 35017KT 10/06 A3001 RMK A01 T00990057  RH  075%=      5-min Rain = 0
KDO1 162125Z 35020KT 10/06 A3001 RMK A01 T00980056  RH  075%=      5-min Rain = 0
KDO1 162126Z 35017G24KT 10/06 A3002 RMK A01 T00960055  RH  075%=      5-min Rain = 0
KDO1 162127Z 34016KT 10/05 A3001 RMK A01 T00950054  RH  076%=      5-min Rain = 0
KDO1 162128Z 35022KT 10/06 A3001 RMK A01 T00950055  RH  076%=      5-min Rain = 0
KDO1 162129Z 34017G23KT 09/05 A3002 RMK A01 T00940053  RH  076%=      5-min Rain = 0
KDO1 162130Z 34020G25KT 09/05 A3002 RMK A01 T00930053  RH  076%=      5-min Rain = 0
KDO1 162131Z 34019KT 09/05 A3002 RMK A01 T00920052  RH  077%=      5-min Rain = 0
KDO1 162132Z 34018G24KT 09/05 A3002 RMK A01 T00910053  RH  077%=      5-min Rain = 0
KDO1 162133Z 34018G23KT 09/05 A3002 RMK A01 T00900053  RH  078%=      5-min Rain = 0
KDO1 162134Z 34017G22KT 09/05 A3002 RMK A01 T00900052  RH  077%=      5-min Rain = 0
KDO1 162135Z 35018KT 09/05 A3002 RMK A01 T00900052  RH  077%=      5-min Rain = 0
KDO1 162136Z 34013KT 09/06 A3002 RMK A01 T00900055  RH  078%=      5-min Rain = 0
KDO1 162137Z 34016G22KT 09/06 A3002 RMK A01 T00920055  RH  078%=      5-min Rain = 0
KDO1 162138Z 35014G19KT 09/06 A3002 RMK A01 T00930055  RH  077%=      5-min Rain = 0
KDO1 162139Z 34017G22KT 09/06 A3002 RMK A01 T00940056  RH  077%=      5-min Rain = 0
KDO1 162140Z 34015KT 10/05 A3002 RMK A01 T00950054  RH  075%=      5-min Rain = 0
KDO1 162141Z 34016G22KT 10/06 A3002 RMK A01 T00960056  RH  076%=      5-min Rain = 0
KDO1 162142Z 33018KT 10/05 A3002 RMK A01 T00970054  RH  074%=      5-min Rain = 0
KDO1 162143Z 35016KT 10/05 A3002 RMK A01 T00980053  RH  074%=      5-min Rain = 0
KDO1 162144Z 35013KT 10/05 A3002 RMK A01 T00980054  RH  074%=      5-min Rain = 0
KDO1 162145Z 35017G26KT 10/06 A3002 RMK A01 T00990057  RH  075%=      5-min Rain = 0
KDO1 162146Z 36019G24KT 10/05 A3002 RMK A01 T00990053  RH  073%=      5-min Rain = 0
KDO1 162147Z 36017KT 10/05 A3002 RMK A01 T00980052  RH  073%=      5-min Rain = 0
KDO1 162148Z 35018KT 10/05 A3002 RMK A01 T00960052  RH  074%=      5-min Rain = 0
KDO1 162149Z 36018KT 09/05 A3002 RMK A01 T00940049  RH  073%=      5-min Rain = 0
KDO1 162150Z 34017G22KT 09/05 A3002 RMK A01 T00930050  RH  075%=      5-min Rain = 0
KDO1 162151Z 34018KT 09/05 A3002 RMK A01 T00920049  RH  075%=      5-min Rain = 0
KDO1 162152Z 35016G21KT 09/05 A3002 RMK A01 T00910049  RH  075%=      5-min Rain = 0
KDO1 162153Z 35019G24KT 09/05 A3002 RMK A01 T00910049  RH  075%=      5-min Rain = 0
KDO1 162154Z 34017KT 09/05 A3002 RMK A01 T00900049  RH  076%=      5-min Rain = 0
KDO1 162155Z 35017G23KT 09/05 A3003 RMK A01 T00890050  RH  077%=      5-min Rain = 0
KDO1 162156Z 35018G24KT 09/05 A3003 RMK A01 T00890050  RH  076%=      5-min Rain = 0
KDO1 162157Z 34020KT 09/05 A3003 RMK A01 T00890049  RH  076%=      5-min Rain = 0
KDO1 162158Z 34018G24KT 09/05 A3002 RMK A01 T00880049  RH  076%=      5-min Rain = 0
KDO1 162159Z 35015KT 09/05 A3003 RMK A01 T00880050  RH  077%=      5-min Rain = 0
KDO1 162200Z 35014KT 09/05 A3003 RMK A01 T00880051  RH  078%=      5-min Rain = 0
KDO1 162201Z 36012KT 09/05 A3003 RMK A01 T00890053  RH  078%=      5-min Rain = 0
KDO1 162202Z 36016G21KT 09/05 A3003 RMK A01 T00900053  RH  078%=      5-min Rain = 0
KDO1 162203Z 35017G22KT 09/05 A3002 RMK A01 T00900051  RH  077%=      5-min Rain = 0
KDO1 162204Z 34016G21KT 09/05 A3003 RMK A01 T00890051  RH  077%=      5-min Rain = 0
KDO1 162205Z 35017G23KT 09/05 A3002 RMK A01 T00890051  RH  077%=      5-min Rain = 0
KDO1 162206Z 35018G24KT 09/05 A3002 RMK A01 T00890050  RH  077%=      5-min Rain = 0
KDO1 162207Z 34016KT 09/05 A3002 RMK A01 T00890050  RH  077%=      5-min Rain = 0
KDO1 162208Z 35016G23KT 09/05 A3003 RMK A01 T00900052  RH  077%=      5-min Rain = 0
KDO1 162209Z 34019KT 09/05 A3003 RMK A01 T00900052  RH  077%=      5-min Rain = 0
KDO1 162210Z 34017KT 09/05 A3003 RMK A01 T00900051  RH  076%=      5-min Rain = 0
KDO1 162211Z 34015G21KT 09/05 A3003 RMK A01 T00900051  RH  076%=      5-min Rain = 0
KDO1 162212Z 34017G22KT 09/05 A3003 RMK A01 T00900053  RH  077%=      5-min Rain = 0
KDO1 162213Z 34019G24KT 09/05 A3003 RMK A01 T00910051  RH  077%=      5-min Rain = 0
KDO1 162214Z 35020KT 09/05 A3002 RMK A01 T00890050  RH  076%=      5-min Rain = 0
KDO1 162215Z 34016G21KT 09/05 A3003 RMK A01 T00890050  RH  077%=      5-min Rain = 0
KDO1 162216Z 34017G22KT 09/05 A3003 RMK A01 T00880049  RH  076%=      5-min Rain = 0
KDO1 162217Z 35020KT 09/05 A3003 RMK A01 T00880048  RH  076%=      5-min Rain = 0
KDO1 162218Z 35018KT 09/05 A3003 RMK A01 T00880046  RH  075%=      5-min Rain = 0
KDO1 162219Z 34016G22KT 09/05 A3003 RMK A01 T00870048  RH  076%=      5-min Rain = 0
KDO1 162220Z 33021KT 09/05 A3002 RMK A01 T00880048  RH  076%=      5-min Rain = 0
KDO1 162221Z 34017G22KT 09/05 A3003 RMK A01 T00880047  RH  076%=      5-min Rain = 0
KDO1 162222Z 35019KT 09/05 A3003 RMK A01 T00880047  RH  076%=      5-min Rain = 0
KDO1 162223Z 35017KT 09/05 A3003 RMK A01 T00870046  RH  076%=      5-min Rain = 0
KDO1 162224Z 34019G25KT 09/05 A3003 RMK A01 T00870047  RH  076%=      5-min Rain = 0
KDO1 162225Z 34021KT 09/05 A3003 RMK A01 T00850045  RH  076%=      5-min Rain = 0
KDO1 162226Z 35017KT 09/05 A3003 RMK A01 T00850046  RH  077%=      5-min Rain = 0
KDO1 162227Z 35015KT 09/05 A3003 RMK A01 T00850047  RH  077%=      5-min Rain = 0
KDO1 162228Z 34018G23KT 09/05 A3003 RMK A01 T00850047  RH  077%=      5-min Rain = 0
KDO1 162229Z 34021KT 09/05 A3003 RMK A01 T00850045  RH  076%=      5-min Rain = 0
KDO1 162230Z 34021G26KT 08/04 A3003 RMK A01 T00840044  RH  076%=      5-min Rain = 0
KDO1 162231Z 34019G25KT 08/04 A3003 RMK A01 T00830043  RH  076%=      5-min Rain = 0
KDO1 162232Z 35023KT 08/04 A3003 RMK A01 T00830044  RH  076%=      5-min Rain = 0
KDO1 162233Z 35018KT 08/04 A3003 RMK A01 T00830043  RH  076%=      5-min Rain = 0
KDO1 162234Z 35018G23KT 08/05 A3003 RMK A01 T00840045  RH  076%=      5-min Rain = 0
KDO1 162235Z 34018G23KT 09/04 A3003 RMK A01 T00850043  RH  075%=      5-min Rain = 0
KDO1 162236Z 35016KT 08/05 A3003 RMK A01 T00840045  RH  076%=      5-min Rain = 0
KDO1 162237Z 36015G21KT 09/05 A3003 RMK A01 T00850046  RH  076%=      5-min Rain = 0
KDO1 162238Z 35021KT 09/05 A3003 RMK A01 T00850045  RH  076%=      5-min Rain = 0
KDO1 162239Z 34015KT 08/04 A3004 RMK A01 T00840043  RH  075%=      5-min Rain = 0
KDO1 162240Z 35013KT 08/05 A3004 RMK A01 T00840048  RH  078%=      5-min Rain = 0
KDO1 162241Z 35012G23KT 09/05 A3004 RMK A01 T00860048  RH  077%=      5-min Rain = 0
KDO1 162242Z 35018KT 09/05 A3004 RMK A01 T00860045  RH  075%=      5-min Rain = 0
KDO1 162243Z 35016KT 09/04 A3004 RMK A01 T00850044  RH  075%=      5-min Rain = 0
KDO1 162244Z 36019KT 08/04 A3004 RMK A01 T00840044  RH  076%=      5-min Rain = 0
KDO1 162245Z 35018G25KT 08/04 A3004 RMK A01 T00830042  RH  075%=      5-min Rain = 0
KDO1 162246Z 35021KT 08/04 A3004 RMK A01 T00830043  RH  076%=      5-min Rain = 0
KDO1 162247Z 34018G23KT 08/04 A3004 RMK A01 T00820043  RH  076%=      5-min Rain = 0
KDO1 162248Z 35018KT 08/04 A3004 RMK A01 T00820042  RH  076%=      5-min Rain = 0
KDO1 162249Z 35019G25KT 08/04 A3004 RMK A01 T00810042  RH  076%=      5-min Rain = 0
KDO1 162250Z 35018KT 08/04 A3004 RMK A01 T00810042  RH  077%=      5-min Rain = 0
KDO1 162251Z 34015G20KT 08/04 A3004 RMK A01 T00810043  RH  077%=      5-min Rain = 0
KDO1 162252Z 35017G23KT 08/04 A3004 RMK A01 T00800043  RH  077%=      5-min Rain = 0
KDO1 162253Z 36018KT 08/04 A3004 RMK A01 T00810044  RH  077%=      5-min Rain = 0
KDO1 162254Z 35019G24KT 08/04 A3004 RMK A01 T00810043  RH  077%=      5-min Rain = 0
KDO1 162255Z 35018KT 08/04 A3004 RMK A01 T00800042  RH  077%=      5-min Rain = 0
KDO1 162256Z 35020G26KT 08/04 A3004 RMK A01 T00800042  RH  077%=      5-min Rain = 0
KDO1 162257Z 35018G23KT 08/04 A3004 RMK A01 T00790040  RH  076%=      5-min Rain = 0
KDO1 162258Z 36018KT 08/04 A3004 RMK A01 T00790041  RH  077%=      5-min Rain = 0
KDO1 162259Z 35018G24KT 08/04 A3004 RMK A01 T00790042  RH  078%=      5-min Rain = 0
KDO1 162300Z 34017G25KT 08/04 A3004 RMK A01 T00790042  RH  077%=      5-min Rain = 0
KDO1 162301Z 35014G19KT 08/04 A3005 RMK A01 T00790043  RH  078%=      5-min Rain = 0
KDO1 162302Z 35014G21KT 08/04 A3005 RMK A01 T00790044  RH  078%=      5-min Rain = 0
KDO1 162303Z 35017G22KT 08/04 A3005 RMK A01 T00800043  RH  078%=      5-min Rain = 0
KDO1 162304Z 35017KT 08/04 A3004 RMK A01 T00800043  RH  078%=      5-min Rain = 0
KDO1 162305Z 35019KT 08/04 A3005 RMK A01 T00800042  RH  077%=      5-min Rain = 0
KDO1 162306Z 35016G21KT 08/04 A3005 RMK A01 T00790042  RH  077%=      5-min Rain = 0
KDO1 162307Z 35019G25KT 08/04 A3005 RMK A01 T00790043  RH  078%=      5-min Rain = 0
KDO1 162308Z 35019G25KT 08/04 A3005 RMK A01 T00790041  RH  077%=      5-min Rain = 0
KDO1 162309Z 35018KT 08/04 A3005 RMK A01 T00790041  RH  077%=      5-min Rain = 0
KDO1 162310Z 36018G23KT 08/04 A3005 RMK A01 T00780042  RH  078%=      5-min Rain = 0
KDO1 162311Z 35019KT 08/04 A3005 RMK A01 T00780040  RH  077%=      5-min Rain = 0
KDO1 162312Z 35022G27KT 08/04 A3005 RMK A01 T00780040  RH  077%=      5-min Rain = 0
KDO1 162313Z 35019G24KT 08/04 A3005 RMK A01 T00770040  RH  077%=      5-min Rain = 0
KDO1 162314Z 35019KT 08/04 A3005 RMK A01 T00770039  RH  077%=      5-min Rain = 0
KDO1 162315Z 36016KT 08/04 A3005 RMK A01 T00770039  RH  077%=      5-min Rain = 0
KDO1 162316Z 35019G24KT 08/04 A3005 RMK A01 T00770039  RH  077%=      5-min Rain = 0
KDO1 162317Z 35014KT 08/04 A3005 RMK A01 T00770040  RH  077%=      5-min Rain = 0
KDO1 162318Z 00016G21KT 08/04 A3005 RMK A01 T00780040  RH  077%=      5-min Rain = 0
KDO1 162319Z 35017KT 08/04 A3005 RMK A01 T00780039  RH  076%=      5-min Rain = 0
KDO1 162320Z 35018KT 08/04 A3005 RMK A01 T00780039  RH  076%=      5-min Rain = 0
KDO1 162321Z 35019KT 08/04 A3005 RMK A01 T00780039  RH  076%=      5-min Rain = 0
KDO1 162322Z 36012KT 08/04 A3005 RMK A01 T00780038  RH  076%=      5-min Rain = 0
KDO1 162323Z 35012G17KT 08/04 A3005 RMK A01 T00780041  RH  078%=      5-min Rain = 0
KDO1 162324Z 35015G21KT 08/04 A3006 RMK A01 T00780041  RH  077%=      5-min Rain = 0
KDO1 162325Z 35017G22KT 08/04 A3006 RMK A01 T00780039  RH  077%=      5-min Rain = 0
KDO1 162326Z 35014KT 08/04 A3006 RMK A01 T00780038  RH  076%=      5-min Rain = 0
KDO1 162327Z 35016G23KT 08/04 A3006 RMK A01 T00780040  RH  077%=      5-min Rain = 0
KDO1 162328Z 35014G19KT 08/04 A3006 RMK A01 T00780039  RH  077%=      5-min Rain = 0
KDO1 162329Z 35017KT 08/04 A3006 RMK A01 T00780040  RH  077%=      5-min Rain = 0
KDO1 162330Z 35021KT 08/04 A3006 RMK A01 T00780039  RH  076%=      5-min Rain = 0
KDO1 162331Z 35021G26KT 08/04 A3006 RMK A01 T00780038  RH  076%=      5-min Rain = 0
KDO1 162332Z 35019KT 08/04 A3006 RMK A01 T00780038  RH  076%=      5-min Rain = 0
KDO1 162333Z 36016G24KT 08/04 A3006 RMK A01 T00790040  RH  076%=      5-min Rain = 0
KDO1 162334Z 34019KT 08/04 A3006 RMK A01 T00790039  RH  076%=      5-min Rain = 0
KDO1 162335Z 35017KT 08/04 A3006 RMK A01 T00790039  RH  076%=      5-min Rain = 0
KDO1 162336Z 35017KT 08/04 A3006 RMK A01 T00780039  RH  076%=      5-min Rain = 0
KDO1 162337Z 36015KT 08/04 A3006 RMK A01 T00780039  RH  077%=      5-min Rain = 0
KDO1 162338Z 35014G20KT 08/04 A3006 RMK A01 T00780040  RH  077%=      5-min Rain = 0
KDO1 162339Z 00015G22KT 08/04 A3006 RMK A01 T00780041  RH  077%=      5-min Rain = 0
KDO1 162340Z 35017G24KT 08/04 A3006 RMK A01 T00780040  RH  077%=      5-min Rain = 0
KDO1 162341Z 36018KT 08/04 A3006 RMK A01 T00780040  RH  077%=      5-min Rain = 0
KDO1 162342Z 36018G25KT 08/04 A3006 RMK A01 T00780040  RH  077%=      5-min Rain = 0
KDO1 162343Z 35016G22KT 08/04 A3006 RMK A01 T00770041  RH  078%=      5-min Rain = 0
KDO1 162344Z 36018G23KT 08/04 A3006 RMK A01 T00770040  RH  078%=      5-min Rain = 0
KDO1 162345Z 00016KT 08/04 A3006 RMK A01 T00770041  RH  078%=      5-min Rain = 0
KDO1 162346Z 36016G21KT 08/04 A3006 RMK A01 T00770042  RH  078%=      5-min Rain = 0
KDO1 162347Z 35018G23KT 08/04 A3007 RMK A01 T00770041  RH  078%=      5-min Rain = 0
KDO1 162348Z 36015KT 08/04 A3007 RMK A01 T00770041  RH  078%=      5-min Rain = 0
KDO1 162349Z 35018KT 08/04 A3007 RMK A01 T00770041  RH  078%=      5-min Rain = 0
KDO1 162350Z 35017G23KT 08/04 A3007 RMK A01 T00770041  RH  078%=      5-min Rain = 0
KDO1 162351Z 35017G22KT 08/04 A3007 RMK A01 T00770040  RH  077%=      5-min Rain = 0
KDO1 162352Z 35017G24KT 08/04 A3007 RMK A01 T00770040  RH  078%=      5-min Rain = 0
KDO1 162353Z 35016KT 08/04 A3007 RMK A01 T00760040  RH  078%=      5-min Rain = 0
KDO1 162354Z 35016G26KT 08/04 A3007 RMK A01 T00760040  RH  078%=      5-min Rain = 0
KDO1 162355Z 35017G23KT 08/04 A3007 RMK A01 T00760040  RH  078%=      5-min Rain = 0
KDO1 162356Z 35017G23KT 08/04 A3007 RMK A01 T00750040  RH  078%=      5-min Rain = 0
KDO1 162357Z 35016G22KT 08/04 A3007 RMK A01 T00750041  RH  079%=      5-min Rain = 0
KDO1 162358Z 35020KT 08/04 A3007 RMK A01 T00760040  RH  078%=      5-min Rain = 0
KDO1 162359Z 36017G23KT 08/04 A3007 RMK A01 T00750038  RH  078%=      5-min Rain = 0
KDO1 170000Z 36017G22KT 08/04 A3007 RMK A01 T00750039  RH  078%=      5-min Rain = 0
KDO1 170001Z 35014G19KT 08/04 A3007 RMK A01 T00750039  RH  078%=      5-min Rain = 0
KDO1 170002Z 35020G26KT 08/04 A3007 RMK A01 T00750039  RH  078%=      5-min Rain = 0
KDO1 170003Z 35019G25KT 08/04 A3007 RMK A01 T00750038  RH  078%=      5-min Rain = 0
KDO1 170004Z 35018G24KT 08/04 A3007 RMK A01 T00750037  RH  077%=      5-min Rain = 0
KDO1 170005Z 36018KT 07/04 A3007 RMK A01 T00740037  RH  077%=      5-min Rain = 0
KDO1 170006Z 36018G24KT 07/04 A3007 RMK A01 T00740038  RH  078%=      5-min Rain = 0
KDO1 170007Z 35019G25KT 07/04 A3007 RMK A01 T00740037  RH  077%=      5-min Rain = 0
KDO1 170008Z 36020KT 07/04 A3007 RMK A01 T00740037  RH  077%=      5-min Rain = 0
KDO1 170009Z 36018G24KT 07/04 A3007 RMK A01 T00740037  RH  077%=      5-min Rain = 0
KDO1 170010Z 35017KT 07/04 A3007 RMK A01 T00740038  RH  078%=      5-min Rain = 0
KDO1 170011Z 36020KT 07/04 A3007 RMK A01 T00740037  RH  078%=      5-min Rain = 0
KDO1 170012Z 36017KT 07/04 A3007 RMK A01 T00740037  RH  077%=      5-min Rain = 0
KDO1 170013Z 36013G20KT 07/04 A3007 RMK A01 T00740038  RH  078%=      5-min Rain = 0
KDO1 170014Z 35015G21KT 08/04 A3007 RMK A01 T00750039  RH  078%=      5-min Rain = 0
KDO1 170015Z 00018KT 08/04 A3007 RMK A01 T00750037  RH  077%=      5-min Rain = 0
KDO1 170016Z 36018KT 08/04 A3008 RMK A01 T00750036  RH  076%=      5-min Rain = 0
KDO1 170017Z 35017KT 08/04 A3008 RMK A01 T00750036  RH  076%=      5-min Rain = 0
KDO1 170018Z 36017G23KT 08/04 A3008 RMK A01 T00750036  RH  076%=      5-min Rain = 0
KDO1 170019Z 36018KT 08/04 A3008 RMK A01 T00750036  RH  076%=      5-min Rain = 0
KDO1 170020Z 35018G23KT 08/04 A3008 RMK A01 T00750036  RH  076%=      5-min Rain = 0
KDO1 170021Z 35017G23KT 08/04 A3008 RMK A01 T00750035  RH  076%=      5-min Rain = 0
KDO1 170022Z 36015KT 08/04 A3008 RMK A01 T00750036  RH  076%=      5-min Rain = 0
KDO1 170023Z 00015KT 08/04 A3008 RMK A01 T00750037  RH  076%=      5-min Rain = 0
KDO1 170024Z 35014G19KT 08/04 A3008 RMK A01 T00750037  RH  077%=      5-min Rain = 0
KDO1 170025Z 35018KT 08/04 A3008 RMK A01 T00750036  RH  076%=      5-min Rain = 0
KDO1 170026Z 35014G19KT 08/04 A3008 RMK A01 T00750036  RH  076%=      5-min Rain = 0
KDO1 170027Z 35017G22KT 08/04 A3008 RMK A01 T00750037  RH  077%=      5-min Rain = 0
KDO1 170028Z 36015G20KT 08/04 A3008 RMK A01 T00750036  RH  076%=      5-min Rain = 0
KDO1 170029Z 35018G23KT 08/04 A3008 RMK A01 T00750035  RH  076%=      5-min Rain = 0
KDO1 170030Z 36016KT 08/03 A3008 RMK A01 T00750034  RH  075%=      5-min Rain = 0
KDO1 170031Z 35015G21KT 08/04 A3008 RMK A01 T00750035  RH  076%=      5-min Rain = 0
KDO1 170032Z 35018G25KT 08/04 A3008 RMK A01 T00750035  RH  076%=      5-min Rain = 0
KDO1 170033Z 35017G22KT 08/04 A3008 RMK A01 T00750035  RH  075%=      5-min Rain = 0
KDO1 170034Z 35017KT 08/04 A3008 RMK A01 T00750035  RH  076%=      5-min Rain = 0
KDO1 170035Z 36015KT 08/04 A3008 RMK A01 T00750035  RH  076%=      5-min Rain = 0
KDO1 170036Z 00016KT 08/04 A3008 RMK A01 T00750035  RH  076%=      5-min Rain = 0
KDO1 170037Z 35012KT 08/04 A3008 RMK A01 T00750036  RH  076%=      5-min Rain = 0
KDO1 170038Z 36016KT 08/04 A3008 RMK A01 T00750036  RH  076%=      5-min Rain = 0
KDO1 170039Z 35014G19KT 08/04 A3008 RMK A01 T00750036  RH  076%=      5-min Rain = 0
KDO1 170040Z 35016G24KT 08/04 A3008 RMK A01 T00750036  RH  076%=      5-min Rain = 0
KDO1 170041Z 36019G24KT 08/03 A3008 RMK A01 T00750033  RH  075%=      5-min Rain = 0
KDO1 170042Z 35016G21KT 08/03 A3008 RMK A01 T00750033  RH  075%=      5-min Rain = 0
KDO1 170043Z 35017G24KT 08/03 A3008 RMK A01 T00750033  RH  075%=      5-min Rain = 0
KDO1 170044Z 35020KT 08/03 A3008 RMK A01 T00750032  RH  074%=      5-min Rain = 0
KDO1 170045Z 35017KT 08/03 A3008 RMK A01 T00750030  RH  073%=      5-min Rain = 0
KDO1 170046Z 36017KT 08/03 A3008 RMK A01 T00750030  RH  073%=      5-min Rain = 0
KDO1 170047Z 00018G25KT 08/03 A3008 RMK A01 T00750029  RH  072%=      5-min Rain = 0
KDO1 170048Z 36017G24KT 08/03 A3008 RMK A01 T00750029  RH  073%=      5-min Rain = 0
KDO1 170049Z 35020KT 08/03 A3008 RMK A01 T00750029  RH  072%=      5-min Rain = 0
KDO1 170050Z 01019G24KT 07/03 A3008 RMK A01 T00740028  RH  072%=      5-min Rain = 0
KDO1 170051Z 01018G23KT 08/03 A3008 RMK A01 T00750027  RH  071%=      5-min Rain = 0
KDO1 170052Z 00014KT 07/03 A3008 RMK A01 T00740028  RH  072%=      5-min Rain = 0
KDO1 170053Z 00015KT 07/03 A3008 RMK A01 T00740029  RH  073%=      5-min Rain = 0
KDO1 170054Z 36019G24KT 07/03 A3008 RMK A01 T00740029  RH  073%=      5-min Rain = 0
KDO1 170055Z 35016G23KT 07/03 A3008 RMK A01 T00740028  RH  072%=      5-min Rain = 0
KDO1 170056Z 36017KT 07/03 A3008 RMK A01 T00740028  RH  073%=      5-min Rain = 0
KDO1 170057Z 35016KT 07/03 A3008 RMK A01 T00740029  RH  073%=      5-min Rain = 0
KDO1 170058Z 36011KT 07/03 A3009 RMK A01 T00740030  RH  074%=      5-min Rain = 0
KDO1 170059Z 35012KT 07/03 A3008 RMK A01 T00730032  RH  075%=      5-min Rain = 0
KDO1 170100Z 36013KT 07/03 A3009 RMK A01 T00730031  RH  074%=      5-min Rain = 0
KDO1 170101Z 36015KT 07/03 A3009 RMK A01 T00730030  RH  074%=      5-min Rain = 0
KDO1 170102Z 36014G19KT 07/03 A3009 RMK A01 T00740030  RH  074%=      5-min Rain = 0
KDO1 170103Z 36016KT 07/03 A3009 RMK A01 T00740030  RH  074%=      5-min Rain = 0
KDO1 170104Z 00016G21KT 07/03 A3009 RMK A01 T00730029  RH  074%=      5-min Rain = 0
KDO1 170105Z 35016KT 07/03 A3009 RMK A01 T00740029  RH  073%=      5-min Rain = 0
KDO1 170106Z 36014KT 07/03 A3009 RMK A01 T00740030  RH  073%=      5-min Rain = 0
KDO1 170107Z 36017G22KT 07/03 A3009 RMK A01 T00740031  RH  074%=      5-min Rain = 0
KDO1 170108Z 35019G24KT 07/03 A3009 RMK A01 T00740030  RH  074%=      5-min Rain = 0
KDO1 170109Z 35020G25KT 07/03 A3009 RMK A01 T00740029  RH  073%=      5-min Rain = 0
KDO1 170110Z 36016G22KT 07/03 A3009 RMK A01 T00740030  RH  074%=      5-min Rain = 0
KDO1 170111Z 35016G21KT 07/03 A3009 RMK A01 T00740030  RH  074%=      5-min Rain = 0
KDO1 170112Z 36019KT 07/03 A3009 RMK A01 T00740030  RH  074%=      5-min Rain = 0
KDO1 170113Z 35015KT 07/03 A3009 RMK A01 T00740030  RH  074%=      5-min Rain = 0
KDO1 170114Z 35012KT 07/03 A3009 RMK A01 T00740031  RH  074%=      5-min Rain = 0
KDO1 170115Z 35019KT 07/03 A3009 RMK A01 T00740030  RH  074%=      5-min Rain = 0
KDO1 170116Z 36013KT 07/03 A3009 RMK A01 T00740031  RH  074%=      5-min Rain = 0
KDO1 170117Z 00014KT 07/03 A3009 RMK A01 T00730031  RH  075%=      5-min Rain = 0
KDO1 170118Z 35013KT 07/03 A301 RMK A01 T00740032  RH  075%=      5-min Rain = 0
KDO1 170119Z 36014KT 07/03 A301 RMK A01 T00730032  RH  075%=      5-min Rain = 0
KDO1 170120Z 35017G22KT 07/03 A301 RMK A01 T00740032  RH  075%=      5-min Rain = 0
KDO1 170121Z 36014KT 07/03 A301 RMK A01 T00730030  RH  074%=      5-min Rain = 0
KDO1 170122Z 35012G17KT 07/03 A301 RMK A01 T00740031  RH  074%=      5-min Rain = 0
KDO1 170123Z 36012KT 07/03 A301 RMK A01 T00730033  RH  075%=      5-min Rain = 0
KDO1 170124Z 00015G20KT 07/03 A301 RMK A01 T00730032  RH  075%=      5-min Rain = 0
KDO1 170125Z 01016KT 07/03 A301 RMK A01 T00730029  RH  074%=      5-min Rain = 0
KDO1 170126Z 00016G21KT 07/03 A301 RMK A01 T00730028  RH  073%=      5-min Rain = 0
KDO1 170127Z 00015G20KT 07/03 A301 RMK A01 T00730027  RH  073%=      5-min Rain = 0
KDO1 170128Z 36012G17KT 07/03 A301 RMK A01 T00730028  RH  073%=      5-min Rain = 0
KDO1 170129Z 35013KT 07/03 A301 RMK A01 T00730028  RH  073%=      5-min Rain = 0
KDO1 170130Z 36014KT 07/03 A3011 RMK A01 T00730028  RH  073%=      5-min Rain = 0
KDO1 170131Z 00011KT 07/03 A3011 RMK A01 T00730028  RH  073%=      5-min Rain = 0
KDO1 170132Z 35012KT 07/03 A3011 RMK A01 T00730029  RH  074%=      5-min Rain = 0
KDO1 170133Z 00013KT 07/03 A3011 RMK A01 T00730027  RH  073%=      5-min Rain = 0
KDO1 170134Z 00009KT 07/03 A3011 RMK A01 T00730027  RH  073%=      5-min Rain = 0
KDO1 170135Z 00011KT 07/03 A3011 RMK A01 T00730029  RH  074%=      5-min Rain = 0
KDO1 170136Z 00011KT 07/03 A3011 RMK A01 T00730028  RH  073%=      5-min Rain = 0
KDO1 170137Z 00014KT 07/03 A3011 RMK A01 T00720027  RH  073%=      5-min Rain = 0
KDO1 170138Z 36014KT 07/03 A3011 RMK A01 T00720025  RH  072%=      5-min Rain = 0
KDO1 170139Z 36013G19KT 07/03 A3011 RMK A01 T00720026  RH  072%=      5-min Rain = 0
KDO1 170140Z 00011KT 07/03 A3011 RMK A01 T00720026  RH  072%=      5-min Rain = 0
KDO1 170141Z 00011KT 07/03 A3011 RMK A01 T00720026  RH  072%=      5-min Rain = 0
KDO1 170142Z 00010G15KT 07/03 A3011 RMK A01 T00720027  RH  073%=      5-min Rain = 0
KDO1 170143Z 01010KT 07/03 A3011 RMK A01 T00720026  RH  072%=      5-min Rain = 0
KDO1 170144Z 01011KT 07/03 A3011 RMK A01 T00720026  RH  073%=      5-min Rain = 0
KDO1 170145Z 00011KT 07/03 A3011 RMK A01 T00710026  RH  073%=      5-min Rain = 0
KDO1 170146Z 01009KT 07/03 A3011 RMK A01 T00710026  RH  073%=      5-min Rain = 0
KDO1 170147Z 00009KT 07/03 A3011 RMK A01 T00700026  RH  073%=      5-min Rain = 0
KDO1 170148Z 01007G12KT 07/03 A3011 RMK A01 T00700026  RH  073%=      5-min Rain = 0
KDO1 170149Z 01007KT 07/03 A3011 RMK A01 T00700026  RH  074%=      5-min Rain = 0
KDO1 170150Z 36010KT 07/03 A3011 RMK A01 T00690025  RH  074%=      5-min Rain = 0
KDO1 170151Z 00010KT 07/02 A3011 RMK A01 T00690024  RH  073%=      5-min Rain = 0
KDO1 170152Z 01011KT 07/02 A3011 RMK A01 T00690023  RH  072%=      5-min Rain = 0
KDO1 170153Z 36009KT 07/02 A3011 RMK A01 T00690024  RH  073%=      5-min Rain = 0
KDO1 170154Z 00010KT 07/02 A3012 RMK A01 T00690024  RH  073%=      5-min Rain = 0
KDO1 170155Z 36010KT 07/02 A3012 RMK A01 T00680024  RH  073%=      5-min Rain = 0
KDO1 170156Z 00009KT 07/02 A3012 RMK A01 T00680024  RH  073%=      5-min Rain = 0
KDO1 170157Z 36009KT 07/02 A3012 RMK A01 T00670023  RH  073%=      5-min Rain = 0
KDO1 170158Z 01007KT 07/02 A3012 RMK A01 T00670023  RH  074%=      5-min Rain = 0
KDO1 170159Z 00007KT 07/02 A3012 RMK A01 T00670024  RH  074%=      5-min Rain = 0
KDO1 170200Z 00009G14KT 07/02 A3012 RMK A01 T00670024  RH  074%=      5-min Rain = 0
KDO1 170201Z 00008KT 07/02 A3012 RMK A01 T00670023  RH  074%=      5-min Rain = 0
KDO1 170202Z 00006KT 07/02 A3012 RMK A01 T00670024  RH  074%=      5-min Rain = 0
KDO1 170203Z 01009KT 07/03 A3012 RMK A01 T00660025  RH  075%=      5-min Rain = 0
KDO1 170204Z 36007KT 07/02 A3012 RMK A01 T00660024  RH  075%=      5-min Rain = 0
KDO1 170205Z 36008KT 07/02 A3012 RMK A01 T00650024  RH  075%=      5-min Rain = 0
KDO1 170206Z 35007KT 07/02 A3013 RMK A01 T00650024  RH  075%=      5-min Rain = 0
KDO1 170207Z 36008KT 07/02 A3013 RMK A01 T00650024  RH  075%=      5-min Rain = 0
KDO1 170208Z 35008KT 07/02 A3013 RMK A01 T00650024  RH  075%=      5-min Rain = 0
KDO1 170209Z 36009KT 07/02 A3013 RMK A01 T00650024  RH  075%=      5-min Rain = 0
KDO1 170210Z 01005KT 07/02 A3013 RMK A01 T00650024  RH  075%=      5-min Rain = 0
KDO1 170211Z 35007KT 06/03 A3013 RMK A01 T00640025  RH  076%=      5-min Rain = 0
KDO1 170212Z 36007KT 06/03 A3013 RMK A01 T00640025  RH  076%=      5-min Rain = 0
KDO1 170213Z 36007KT 06/02 A3013 RMK A01 T00630024  RH  076%=      5-min Rain = 0
KDO1 170214Z 00009KT 06/03 A3013 RMK A01 T00630025  RH  076%=      5-min Rain = 0
KDO1 170215Z 36007KT 06/02 A3013 RMK A01 T00630023  RH  076%=      5-min Rain = 0
KDO1 170216Z 36007KT 06/02 A3013 RMK A01 T00630023  RH  076%=      5-min Rain = 0
KDO1 170217Z 00006KT 06/02 A3013 RMK A01 T00630024  RH  076%=      5-min Rain = 0
KDO1 170218Z 00008KT 06/02 A3013 RMK A01 T00630024  RH  076%=      5-min Rain = 0
KDO1 170219Z 00009KT 06/02 A3013 RMK A01 T00630023  RH  076%=      5-min Rain = 0
KDO1 170220Z 00007KT 06/02 A3013 RMK A01 T00630023  RH  076%=      5-min Rain = 0
KDO1 170221Z 36008KT 06/02 A3013 RMK A01 T00630023  RH  076%=      5-min Rain = 0
KDO1 170222Z 36009KT 06/02 A3013 RMK A01 T00630023  RH  075%=      5-min Rain = 0
KDO1 170223Z 01008KT 06/02 A3013 RMK A01 T00630023  RH  075%=      5-min Rain = 0
KDO1 170224Z 00007KT 06/02 A3013 RMK A01 T00630024  RH  076%=      5-min Rain = 0
KDO1 170225Z 36007KT 06/03 A3013 RMK A01 T00630025  RH  076%=      5-min Rain = 0
KDO1 170226Z 36007KT 06/03 A3013 RMK A01 T00630025  RH  077%=      5-min Rain = 0
KDO1 170227Z 36006KT 06/03 A3013 RMK A01 T00630025  RH  077%=      5-min Rain = 0
KDO1 170228Z 35007KT 06/03 A3014 RMK A01 T00620025  RH  077%=      5-min Rain = 0
KDO1 170229Z 35009KT 06/03 A3014 RMK A01 T00620025  RH  077%=      5-min Rain = 0
KDO1 170230Z 35007KT 06/03 A3014 RMK A01 T00610025  RH  077%=      5-min Rain = 0
KDO1 170231Z 35008KT 06/03 A3014 RMK A01 T00610025  RH  078%=      5-min Rain = 0
KDO1 170232Z 36008KT 06/03 A3014 RMK A01 T00610025  RH  078%=      5-min Rain = 0
KDO1 170233Z 35008KT 06/03 A3014 RMK A01 T00600025  RH  078%=      5-min Rain = 0
KDO1 170234Z 36008KT 06/03 A3014 RMK A01 T00600025  RH  078%=      5-min Rain = 0
KDO1 170235Z 35008KT 06/02 A3014 RMK A01 T00600024  RH  078%=      5-min Rain = 0
KDO1 170236Z 36008KT 06/03 A3014 RMK A01 T00600025  RH  078%=      5-min Rain = 0
KDO1 170237Z 36008KT 06/03 A3014 RMK A01 T00600025  RH  078%=      5-min Rain = 0
KDO1 170238Z 00009KT 06/03 A3014 RMK A01 T00590025  RH  078%=      5-min Rain = 0
KDO1 170239Z 00007KT 06/03 A3014 RMK A01 T00590025  RH  078%=      5-min Rain = 0
KDO1 170240Z 36007KT 06/03 A3014 RMK A01 T00590025  RH  079%=      5-min Rain = 0
KDO1 170241Z 36008KT 06/03 A3014 RMK A01 T00590025  RH  079%=      5-min Rain = 0
KDO1 170242Z 00009KT 06/03 A3014 RMK A01 T00580025  RH  079%=      5-min Rain = 0
KDO1 170243Z 36008KT 06/03 A3014 RMK A01 T00580025  RH  079%=      5-min Rain = 0
KDO1 170244Z 36008KT 06/03 A3014 RMK A01 T00580025  RH  079%=      5-min Rain = 0
KDO1 170245Z 35008KT 06/03 A3014 RMK A01 T00580025  RH  079%=      5-min Rain = 0
KDO1 170246Z 36009KT 06/03 A3014 RMK A01 T00580025  RH  079%=      5-min Rain = 0
KDO1 170247Z 36009KT 06/03 A3014 RMK A01 T00580025  RH  079%=      5-min Rain = 0
KDO1 170248Z 36008KT 06/03 A3014 RMK A01 T00580025  RH  079%=      5-min Rain = 0
KDO1 170249Z 36007KT 06/03 A3014 RMK A01 T00580025  RH  080%=      5-min Rain = 0
KDO1 170250Z 36007KT 06/03 A3014 RMK A01 T00570025  RH  080%=      5-min Rain = 0
KDO1 170251Z 36007KT 06/03 A3014 RMK A01 T00570025  RH  080%=      5-min Rain = 0
KDO1 170252Z 36008KT 06/03 A3014 RMK A01 T00560025  RH  080%=      5-min Rain = 0
KDO1 170253Z 35008KT 06/03 A3014 RMK A01 T00570025  RH  080%=      5-min Rain = 0
KDO1 170254Z 36008KT 06/03 A3014 RMK A01 T00560025  RH  080%=      5-min Rain = 0
KDO1 170255Z 36008KT 06/03 A3014 RMK A01 T00560026  RH  081%=      5-min Rain = 0
KDO1 170256Z 36008KT 06/03 A3014 RMK A01 T00550026  RH  081%=      5-min Rain = 0
KDO1 170257Z 35007KT 06/03 A3014 RMK A01 T00550025  RH  081%=      5-min Rain = 0
KDO1 170258Z 35006KT 06/03 A3014 RMK A01 T00550026  RH  081%=      5-min Rain = 0
KDO1 170259Z 36007KT 06/03 A3014 RMK A01 T00550026  RH  082%=      5-min Rain = 0
KDO1 170300Z 36008KT 05/03 A3014 RMK A01 T00540026  RH  082%=      5-min Rain = 0
KDO1 170301Z 36008KT 05/03 A3014 RMK A01 T00540025  RH  082%=      5-min Rain = 0
KDO1 170302Z 36006KT 05/03 A3014 RMK A01 T00540026  RH  082%=      5-min Rain = 0
KDO1 170303Z 35007KT 05/03 A3014 RMK A01 T00540026  RH  082%=      5-min Rain = 0
KDO1 170304Z 35008KT 05/03 A3014 RMK A01 T00540026  RH  082%=      5-min Rain = 0
KDO1 170305Z 36007KT 05/03 A3014 RMK A01 T00540026  RH  082%=      5-min Rain = 0
KDO1 170306Z 36008KT 05/03 A3014 RMK A01 T00540026  RH  082%=      5-min Rain = 0
KDO1 170307Z 36008KT 05/03 A3014 RMK A01 T00540026  RH  082%=      5-min Rain = 0
KDO1 170308Z 36008KT 05/03 A3014 RMK A01 T00540026  RH  083%=      5-min Rain = 0
KDO1 170309Z 00008KT 05/03 A3014 RMK A01 T00530026  RH  083%=      5-min Rain = 0
KDO1 170310Z 00007KT 05/03 A3014 RMK A01 T00530026  RH  083%=      5-min Rain = 0
KDO1 170311Z 00008KT 05/03 A3014 RMK A01 T00530026  RH  082%=      5-min Rain = 0
KDO1 170312Z 00008KT 05/03 A3014 RMK A01 T00530026  RH  083%=      5-min Rain = 0
KDO1 170313Z 00009KT 05/03 A3014 RMK A01 T00530026  RH  083%=      5-min Rain = 0
KDO1 170314Z 00007KT 05/03 A3014 RMK A01 T00530026  RH  083%=      5-min Rain = 0
KDO1 170315Z 00007KT 05/03 A3014 RMK A01 T00530026  RH  083%=      5-min Rain = 0
KDO1 170316Z 01009KT 05/03 A3014 RMK A01 T00530026  RH  083%=      5-min Rain = 0
KDO1 170317Z 00008KT 05/03 A3014 RMK A01 T00530025  RH  083%=      5-min Rain = 0
KDO1 170318Z 01009KT 05/03 A3014 RMK A01 T00530026  RH  082%=      5-min Rain = 0
KDO1 170319Z 36008KT 05/03 A3014 RMK A01 T00530026  RH  082%=      5-min Rain = 0
KDO1 170320Z 36009KT 05/03 A3014 RMK A01 T00540026  RH  082%=      5-min Rain = 0
KDO1 170321Z 36008KT 05/03 A3014 RMK A01 T00530026  RH  083%=      5-min Rain = 0
KDO1 170322Z 00008KT 05/03 A3014 RMK A01 T00530026  RH  083%=      5-min Rain = 0
KDO1 170323Z 36009KT 05/03 A3014 RMK A01 T00530026  RH  082%=      5-min Rain = 0
KDO1 170324Z 36009KT 05/03 A3014 RMK A01 T00530026  RH  082%=      5-min Rain = 0
KDO1 170325Z 35009KT 05/03 A3014 RMK A01 T00540026  RH  082%=      5-min Rain = 0
KDO1 170326Z 35008KT 05/03 A3014 RMK A01 T00540026  RH  082%=      5-min Rain = 0
KDO1 170327Z 35008KT 05/03 A3014 RMK A01 T00540026  RH  082%=      5-min Rain = 0
KDO1 170328Z 35007KT 05/03 A3014 RMK A01 T00540027  RH  083%=      5-min Rain = 0
KDO1 170329Z 36006KT 05/03 A3014 RMK A01 T00540027  RH  083%=      5-min Rain = 0
KDO1 170330Z 35007KT 05/03 A3014 RMK A01 T00530027  RH  083%=      5-min Rain = 0
KDO1 170331Z 35009KT 05/03 A3014 RMK A01 T00530026  RH  083%=      5-min Rain = 0
KDO1 170332Z 36007KT 05/03 A3014 RMK A01 T00530026  RH  083%=      5-min Rain = 0
KDO1 170333Z 36008KT 05/03 A3014 RMK A01 T00540027  RH  083%=      5-min Rain = 0
KDO1 170334Z 35006KT 05/03 A3014 RMK A01 T00540027  RH  083%=      5-min Rain = 0
KDO1 170335Z 35007KT 05/03 A3014 RMK A01 T00530027  RH  083%=      5-min Rain = 0
KDO1 170336Z 35009KT 05/03 A3014 RMK A01 T00540027  RH  083%=      5-min Rain = 0
KDO1 170337Z 35007KT 05/03 A3014 RMK A01 T00530027  RH  083%=      5-min Rain = 0
KDO1 170338Z 34009KT 05/03 A3014 RMK A01 T00530027  RH  083%=      5-min Rain = 0
KDO1 170339Z 35008KT 05/03 A3014 RMK A01 T00540027  RH  083%=      5-min Rain = 0
KDO1 170340Z 35008KT 05/03 A3015 RMK A01 T00540026  RH  082%=      5-min Rain = 0
KDO1 170341Z 35008KT 06/03 A3015 RMK A01 T00550027  RH  082%=      5-min Rain = 0
KDO1 170342Z 34007KT 06/03 A3015 RMK A01 T00550027  RH  082%=      5-min Rain = 0
KDO1 170343Z 34008KT 06/03 A3015 RMK A01 T00550028  RH  083%=      5-min Rain = 0
KDO1 170344Z 35008KT 06/03 A3015 RMK A01 T00550027  RH  082%=      5-min Rain = 0
KDO1 170345Z 35008KT 06/03 A3015 RMK A01 T00550027  RH  082%=      5-min Rain = 0
KDO1 170346Z 35008KT 06/03 A3015 RMK A01 T00550027  RH  082%=      5-min Rain = 0
KDO1 170347Z 34008KT 06/03 A3015 RMK A01 T00560027  RH  082%=      5-min Rain = 0
KDO1 170348Z 33007KT 06/03 A3015 RMK A01 T00550027  RH  082%=      5-min Rain = 0
KDO1 170349Z 34006KT 06/03 A3015 RMK A01 T00550027  RH  082%=      5-min Rain = 0
KDO1 170350Z 33006KT 06/03 A3015 RMK A01 T00550027  RH  082%=      5-min Rain = 0
KDO1 170351Z 34006KT 06/03 A3015 RMK A01 T00550028  RH  082%=      5-min Rain = 0
KDO1 170352Z 34006KT 06/03 A3015 RMK A01 T00550028  RH  083%=      5-min Rain = 0
KDO1 170353Z 33006KT 06/03 A3015 RMK A01 T00550028  RH  083%=      5-min Rain = 0
KDO1 170354Z 33007KT 06/03 A3015 RMK A01 T00550028  RH  083%=      5-min Rain = 0
KDO1 170355Z 34006KT 05/03 A3015 RMK A01 T00540028  RH  083%=      5-min Rain = 0
KDO1 170356Z 34007KT 05/03 A3016 RMK A01 T00540028  RH  083%=      5-min Rain = 0
KDO1 170357Z 33007KT 05/03 A3016 RMK A01 T00540028  RH  083%=      5-min Rain = 0
KDO1 170358Z 34006KT 05/03 A3016 RMK A01 T00540028  RH  083%=      5-min Rain = 0
KDO1 170359Z 33007KT 05/03 A3016 RMK A01 T00540028  RH  083%=      5-min Rain = 0
KDO1 170400Z 33007KT 05/03 A3016 RMK A01 T00540028  RH  083%=      5-min Rain = 0
KDO1 170401Z 33007KT 06/03 A3016 RMK A01 T00550028  RH  083%=      5-min Rain = 0
KDO1 170402Z 33007KT 06/03 A3016 RMK A01 T00550028  RH  083%=      5-min Rain = 0
KDO1 170403Z 34006KT 06/03 A3016 RMK A01 T00550027  RH  083%=      5-min Rain = 0
KDO1 170404Z 34007KT 06/03 A3016 RMK A01 T00550028  RH  083%=      5-min Rain = 0
KDO1 170405Z 34006KT 06/03 A3016 RMK A01 T00550028  RH  082%=      5-min Rain = 0
KDO1 170406Z 33008KT 06/03 A3016 RMK A01 T00550028  RH  083%=      5-min Rain = 0
KDO1 170407Z 33009KT 06/03 A3016 RMK A01 T00550027  RH  082%=      5-min Rain = 0
KDO1 170408Z 33008KT 06/03 A3016 RMK A01 T00560027  RH  082%=      5-min Rain = 0
KDO1 170409Z 33007KT 06/03 A3016 RMK A01 T00560027  RH  082%=      5-min Rain = 0
KDO1 170410Z 33007KT 06/03 A3016 RMK A01 T00560028  RH  082%=      5-min Rain = 0
KDO1 170411Z 33008KT 06/03 A3016 RMK A01 T00560028  RH  082%=      5-min Rain = 0
KDO1 170412Z 33008KT 06/03 A3016 RMK A01 T00550027  RH  082%=      5-min Rain = 0
KDO1 170413Z 34009KT 06/03 A3016 RMK A01 T00550026  RH  081%=      5-min Rain = 0
KDO1 170414Z 33007KT 06/03 A3016 RMK A01 T00560026  RH  081%=      5-min Rain = 0
KDO1 170415Z 34008KT 06/03 A3016 RMK A01 T00560026  RH  081%=      5-min Rain = 0
KDO1 170416Z 34008KT 06/03 A3016 RMK A01 T00570026  RH  081%=      5-min Rain = 0
KDO1 170417Z 33007KT 06/03 A3016 RMK A01 T00560026  RH  081%=      5-min Rain = 0
KDO1 170418Z 33009KT 06/03 A3016 RMK A01 T00560026  RH  081%=      5-min Rain = 0
KDO1 170419Z 33008KT 06/03 A3016 RMK A01 T00560025  RH  080%=      5-min Rain = 0
KDO1 170420Z 33008KT 06/03 A3016 RMK A01 T00570025  RH  080%=      5-min Rain = 0
KDO1 170421Z 33008KT 06/03 A3016 RMK A01 T00570025  RH  080%=      5-min Rain = 0
KDO1 170422Z 33009KT 06/02 A3016 RMK A01 T00560024  RH  080%=      5-min Rain = 0
KDO1 170423Z 34008KT 06/02 A3016 RMK A01 T00560024  RH  079%=      5-min Rain = 0
KDO1 170424Z 33009KT 06/02 A3016 RMK A01 T00560023  RH  079%=      5-min Rain = 0
KDO1 170425Z 33008KT 06/02 A3016 RMK A01 T00560024  RH  079%=      5-min Rain = 0
KDO1 170426Z 34008KT 06/02 A3016 RMK A01 T00560023  RH  080%=      5-min Rain = 0
KDO1 170427Z 33010KT 06/02 A3016 RMK A01 T00560023  RH  079%=      5-min Rain = 0
KDO1 170428Z 34008KT 06/02 A3016 RMK A01 T00560022  RH  079%=      5-min Rain = 0
KDO1 170429Z 34009KT 06/02 A3016 RMK A01 T00560022  RH  079%=      5-min Rain = 0
KDO1 170430Z 33008KT 06/02 A3016 RMK A01 T00560022  RH  079%=      5-min Rain = 0
KDO1 170431Z 33007KT 06/02 A3016 RMK A01 T00550022  RH  079%=      5-min Rain = 0
KDO1 170432Z 33007KT 06/02 A3016 RMK A01 T00550022  RH  079%=      5-min Rain = 0
KDO1 170433Z 33008KT 06/02 A3016 RMK A01 T00550022  RH  079%=      5-min Rain = 0
KDO1 170434Z 33008KT 05/02 A3016 RMK A01 T00540021  RH  079%=      5-min Rain = 0
KDO1 170435Z 33007KT 05/02 A3016 RMK A01 T00540021  RH  079%=      5-min Rain = 0
KDO1 170436Z 33007KT 05/02 A3016 RMK A01 T00540021  RH  079%=      5-min Rain = 0
KDO1 170437Z 33007KT 05/02 A3016 RMK A01 T00540021  RH  079%=      5-min Rain = 0
KDO1 170438Z 33008KT 05/02 A3016 RMK A01 T00540021  RH  079%=      5-min Rain = 0
KDO1 170439Z 33007KT 05/02 A3016 RMK A01 T00540021  RH  079%=      5-min Rain = 0
KDO1 170440Z 33007KT 05/02 A3016 RMK A01 T00540021  RH  079%=      5-min Rain = 0
KDO1 170441Z 33008KT 05/02 A3016 RMK A01 T00540020  RH  079%=      5-min Rain = 0
KDO1 170442Z 33007KT 05/02 A3016 RMK A01 T00540020  RH  079%=      5-min Rain = 0
KDO1 170443Z 33008KT 05/02 A3016 RMK A01 T00540020  RH  079%=      5-min Rain = 0
KDO1 170444Z 33008KT 05/02 A3016 RMK A01 T00530020  RH  079%=      5-min Rain = 0
KDO1 170445Z 33008KT 05/02 A3016 RMK A01 T00530020  RH  079%=      5-min Rain = 0
KDO1 170446Z 34008KT 05/02 A3016 RMK A01 T00530020  RH  079%=      5-min Rain = 0
KDO1 170447Z 34007KT 05/02 A3016 RMK A01 T00530020  RH  079%=      5-min Rain = 0
KDO1 170448Z 33007KT 05/02 A3016 RMK A01 T00530020  RH  079%=      5-min Rain = 0
KDO1 170449Z 33008KT 05/02 A3016 RMK A01 T00530020  RH  079%=      5-min Rain = 0
KDO1 170450Z 33007KT 05/02 A3016 RMK A01 T00530020  RH  079%=      5-min Rain = 0
KDO1 170451Z 33007KT 05/02 A3016 RMK A01 T00530020  RH  079%=      5-min Rain = 0
KDO1 170452Z 33008KT 05/02 A3016 RMK A01 T00530020  RH  079%=      5-min Rain = 0
KDO1 170453Z 32008KT 05/02 A3016 RMK A01 T00530020  RH  079%=      5-min Rain = 0
KDO1 170454Z 33008KT 05/02 A3016 RMK A01 T00530020  RH  080%=      5-min Rain = 0
KDO1 170455Z 33007KT 05/02 A3016 RMK A01 T00520020  RH  080%=      5-min Rain = 0
KDO1 170456Z 33008KT 05/02 A3016 RMK A01 T00510020  RH  080%=      5-min Rain = 0
KDO1 170457Z 32007KT 05/02 A3016 RMK A01 T00510020  RH  080%=      5-min Rain = 0
KDO1 170458Z 32007KT 05/02 A3016 RMK A01 T00500020  RH  081%=      5-min Rain = 0
KDO1 170459Z 32007KT 05/02 A3016 RMK A01 T00500020  RH  081%=      5-min Rain = 0

Page generated in 0.155 seconds.